Observation data for Snyder SSW on 08/14/2019      Previous  Date  Next       Current Mesonet Observations  Soil Data  Daily Summary Page  Observations in Plain Language
KWT1 140500Z 06012KT 30/21 A3005 RMK A01 T02960206  RH  059%=      5-min Rain = 0
KWT1 140501Z 06012KT 30/21 A3005 RMK A01 T02950206  RH  059%=      5-min Rain = 0
KWT1 140502Z 05014KT 30/21 A3005 RMK A01 T02950206  RH  059%=      5-min Rain = 0
KWT1 140503Z 07013KT 30/21 A3005 RMK A01 T02950206  RH  059%=      5-min Rain = 0
KWT1 140504Z 06012KT 30/21 A3005 RMK A01 T02950206  RH  059%=      5-min Rain = 0
KWT1 140505Z 06014KT 30/21 A3005 RMK A01 T02950206  RH  059%=      5-min Rain = 0
KWT1 140506Z 07012KT 29/21 A3005 RMK A01 T02940206  RH  059%=      5-min Rain = 0
KWT1 140507Z 06015G21KT 29/21 A3005 RMK A01 T02940206  RH  059%=      5-min Rain = 0
KWT1 140508Z 06015G20KT 29/21 A3005 RMK A01 T02940206  RH  059%=      5-min Rain = 0
KWT1 140509Z 06013KT 30/21 A3005 RMK A01 T02950207  RH  059%=      5-min Rain = 0
KWT1 140510Z 06012KT 29/21 A3005 RMK A01 T02940206  RH  059%=      5-min Rain = 0
KWT1 140524Z 05013KT 29/21 A3005 RMK A01 T02910205  RH  060%=      5-min Rain = 0
KWT1 140525Z 06011KT 29/21 A3005 RMK A01 T02910205  RH  060%=      5-min Rain = 0
KWT1 140526Z 06013KT 29/21 A3005 RMK A01 T02910205  RH  060%=      5-min Rain = 0
KWT1 140527Z 06014KT 29/21 A3006 RMK A01 T02900205  RH  060%=      5-min Rain = 0
KWT1 140528Z 05011KT 29/20 A3006 RMK A01 T02900204  RH  060%=      5-min Rain = 0
KWT1 140529Z 06012KT 29/20 A3006 RMK A01 T02900204  RH  060%=      5-min Rain = 0
KWT1 140530Z 06012KT 29/20 A3006 RMK A01 T02900204  RH  060%=      5-min Rain = 0
KWT1 140531Z 06012KT 29/20 A3006 RMK A01 T02900204  RH  060%=      5-min Rain = 0
KWT1 140532Z 05013KT 29/20 A3006 RMK A01 T02900204  RH  060%=      5-min Rain = 0
KWT1 140533Z 06010KT 29/20 A3006 RMK A01 T02900204  RH  060%=      5-min Rain = 0
KWT1 140534Z 06012KT 29/20 A3006 RMK A01 T02900204  RH  060%=      5-min Rain = 0
KWT1 140535Z 06010KT 29/20 A3006 RMK A01 T02890204  RH  060%=      5-min Rain = 0
KWT1 140536Z 05009KT 29/20 A3006 RMK A01 T02890204  RH  060%=      5-min Rain = 0
KWT1 140537Z 06010KT 29/20 A3006 RMK A01 T02880204  RH  060%=      5-min Rain = 0
KWT1 140538Z 05010KT 29/20 A3006 RMK A01 T02880204  RH  060%=      5-min Rain = 0
KWT1 140539Z 05013KT 29/20 A3006 RMK A01 T02870203  RH  060%=      5-min Rain = 0
KWT1 140540Z 06013KT 29/20 A3006 RMK A01 T02880203  RH  060%=      5-min Rain = 0
KWT1 140541Z 06011KT 29/20 A3006 RMK A01 T02880203  RH  060%=      5-min Rain = 0
KWT1 140542Z 06014KT 29/20 A3006 RMK A01 T02880203  RH  060%=      5-min Rain = 0
KWT1 140543Z 05011KT 29/20 A3006 RMK A01 T02880204  RH  060%=      5-min Rain = 0
KWT1 140544Z 05012KT 29/20 A3006 RMK A01 T02880204  RH  060%=      5-min Rain = 0
KWT1 140545Z 05014KT 29/20 A3006 RMK A01 T02870203  RH  060%=      5-min Rain = 0
KWT1 140546Z 05011KT 29/20 A3006 RMK A01 T02880203  RH  060%=      5-min Rain = 0
KWT1 140547Z 05010KT 29/20 A3006 RMK A01 T02870203  RH  060%=      5-min Rain = 0
KWT1 140548Z 06010KT 29/20 A3006 RMK A01 T02870203  RH  060%=      5-min Rain = 0
KWT1 140549Z 06011KT 29/20 A3006 RMK A01 T02870203  RH  061%=      5-min Rain = 0
KWT1 140550Z 05012KT 29/20 A3006 RMK A01 T02870203  RH  061%=      5-min Rain = 0
KWT1 140551Z 05011KT 29/20 A3006 RMK A01 T02860203  RH  061%=      5-min Rain = 0
KWT1 140552Z 06013KT 29/20 A3006 RMK A01 T02860203  RH  061%=      5-min Rain = 0
KWT1 140553Z 05013KT 29/20 A3006 RMK A01 T02860203  RH  061%=      5-min Rain = 0
KWT1 140554Z 06011KT 29/20 A3006 RMK A01 T02860203  RH  061%=      5-min Rain = 0
KWT1 140555Z 05009KT 29/20 A3006 RMK A01 T02860203  RH  061%=      5-min Rain = 0
KWT1 140556Z 06011KT 29/20 A3006 RMK A01 T02860204  RH  061%=      5-min Rain = 0
KWT1 140557Z 06010KT 29/20 A3006 RMK A01 T02860204  RH  061%=      5-min Rain = 0
KWT1 140558Z 06009KT 29/20 A3006 RMK A01 T02860204  RH  061%=      5-min Rain = 0
KWT1 140559Z 05012KT 29/20 A3006 RMK A01 T02850203  RH  061%=      5-min Rain = 0
KWT1 140600Z 05011KT 29/20 A3006 RMK A01 T02850203  RH  061%=      5-min Rain = 0
KWT1 140601Z 05010G15KT 29/20 A3006 RMK A01 T02850203  RH  061%=      5-min Rain = 0
KWT1 140602Z 06010KT 29/20 A3006 RMK A01 T02850203  RH  061%=      5-min Rain = 0
KWT1 140603Z 05010KT 29/20 A3006 RMK A01 T02850204  RH  061%=      5-min Rain = 0
KWT1 140604Z 05010KT 29/20 A3006 RMK A01 T02850204  RH  061%=      5-min Rain = 0
KWT1 140605Z 05011KT 29/20 A3006 RMK A01 T02850203  RH  061%=      5-min Rain = 0
KWT1 140606Z 06010KT 29/20 A3006 RMK A01 T02850204  RH  061%=      5-min Rain = 0
KWT1 140607Z 05007KT 28/20 A3006 RMK A01 T02840203  RH  062%=      5-min Rain = 0
KWT1 140608Z 06010KT 28/20 A3006 RMK A01 T02840204  RH  062%=      5-min Rain = 0
KWT1 140609Z 06010KT 28/20 A3006 RMK A01 T02840204  RH  062%=      5-min Rain = 0
KWT1 140610Z 06012KT 28/20 A3006 RMK A01 T02840204  RH  062%=      5-min Rain = 0
KWT1 140611Z 06012KT 28/20 A3006 RMK A01 T02840204  RH  062%=      5-min Rain = 0
KWT1 140612Z 06011KT 28/20 A3006 RMK A01 T02840204  RH  062%=      5-min Rain = 0
KWT1 140613Z 06012KT 28/20 A3006 RMK A01 T02840204  RH  062%=      5-min Rain = 0
KWT1 140614Z 06012KT 28/20 A3006 RMK A01 T02840204  RH  062%=      5-min Rain = 0
KWT1 140615Z 06012KT 28/20 A3006 RMK A01 T02830204  RH  062%=      5-min Rain = 0
KWT1 140616Z 05010KT 28/20 A3006 RMK A01 T02830204  RH  062%=      5-min Rain = 0
KWT1 140617Z 06013KT 28/20 A3006 RMK A01 T02830204  RH  062%=      5-min Rain = 0
KWT1 140618Z 06012KT 28/20 A3005 RMK A01 T02830204  RH  062%=      5-min Rain = 0
KWT1 140619Z 06008KT 28/20 A3005 RMK A01 T02830204  RH  062%=      5-min Rain = 0
KWT1 140620Z 06011KT 28/20 A3005 RMK A01 T02830204  RH  062%=      5-min Rain = 0
KWT1 140621Z 06011KT 28/20 A3005 RMK A01 T02820204  RH  063%=      5-min Rain = 0
KWT1 140622Z 06010KT 28/21 A3005 RMK A01 T02830205  RH  063%=      5-min Rain = 0
KWT1 140623Z 06009KT 28/21 A3005 RMK A01 T02830205  RH  063%=      5-min Rain = 0
KWT1 140624Z 06011KT 28/21 A3005 RMK A01 T02820205  RH  063%=      5-min Rain = 0
KWT1 140625Z 06010KT 28/21 A3005 RMK A01 T02820205  RH  063%=      5-min Rain = 0
KWT1 140626Z 05012KT 28/21 A3005 RMK A01 T02820205  RH  063%=      5-min Rain = 0
KWT1 140627Z 05010KT 28/21 A3005 RMK A01 T02820205  RH  063%=      5-min Rain = 0
KWT1 140628Z 06010KT 28/21 A3005 RMK A01 T02820205  RH  063%=      5-min Rain = 0
KWT1 140629Z 05010KT 28/21 A3005 RMK A01 T02820205  RH  063%=      5-min Rain = 0
KWT1 140630Z 06011KT 28/20 A3005 RMK A01 T02810204  RH  063%=      5-min Rain = 0
KWT1 140631Z 06011KT 28/21 A3005 RMK A01 T02810205  RH  063%=      5-min Rain = 0
KWT1 140632Z 06013KT 28/21 A3005 RMK A01 T02810205  RH  063%=      5-min Rain = 0
KWT1 140633Z 06010G15KT 28/21 A3005 RMK A01 T02810205  RH  063%=      5-min Rain = 0
KWT1 140634Z 05011KT 28/21 A3005 RMK A01 T02810205  RH  063%=      5-min Rain = 0
KWT1 140635Z 05010KT 28/21 A3006 RMK A01 T02810205  RH  063%=      5-min Rain = 0
KWT1 140636Z 04009KT 28/21 A3005 RMK A01 T02810205  RH  063%=      5-min Rain = 0
KWT1 140637Z 04010KT 28/21 A3005 RMK A01 T02800205  RH  064%=      5-min Rain = 0
KWT1 140638Z 05012KT 28/20 A3005 RMK A01 T02800204  RH  064%=      5-min Rain = 0
KWT1 140639Z 05010KT 28/21 A3005 RMK A01 T02800205  RH  064%=      5-min Rain = 0
KWT1 140640Z 04011KT 28/21 A3005 RMK A01 T02800205  RH  064%=      5-min Rain = 0
KWT1 140641Z 05012KT 28/21 A3005 RMK A01 T02800205  RH  064%=      5-min Rain = 0
KWT1 140642Z 04010KT 28/21 A3005 RMK A01 T02800205  RH  064%=      5-min Rain = 0
KWT1 140643Z 05012KT 28/21 A3005 RMK A01 T02790205  RH  064%=      5-min Rain = 0
KWT1 140644Z 05011KT 28/21 A3005 RMK A01 T02790205  RH  064%=      5-min Rain = 0
KWT1 140645Z 05011KT 28/21 A3005 RMK A01 T02790205  RH  064%=      5-min Rain = 0
KWT1 140646Z 05012KT 28/21 A3005 RMK A01 T02780205  RH  064%=      5-min Rain = 0
KWT1 140647Z 05010KT 28/21 A3005 RMK A01 T02780205  RH  064%=      5-min Rain = 0
KWT1 140648Z 05011KT 28/21 A3005 RMK A01 T02780205  RH  064%=      5-min Rain = 0
KWT1 140649Z 05013KT 28/21 A3005 RMK A01 T02780205  RH  064%=      5-min Rain = 0
KWT1 140650Z 05011KT 28/21 A3005 RMK A01 T02780205  RH  064%=      5-min Rain = 0
KWT1 140651Z 05011KT 28/21 A3005 RMK A01 T02780205  RH  064%=      5-min Rain = 0
KWT1 140652Z 05012KT 28/21 A3005 RMK A01 T02780205  RH  064%=      5-min Rain = 0
KWT1 140653Z 05010KT 28/21 A3005 RMK A01 T02780205  RH  064%=      5-min Rain = 0
KWT1 140654Z 05009KT 28/21 A3005 RMK A01 T02780205  RH  065%=      5-min Rain = 0
KWT1 140655Z 05010KT 28/21 A3005 RMK A01 T02770205  RH  065%=      5-min Rain = 0
KWT1 140656Z 05011KT 28/21 A3005 RMK A01 T02770205  RH  065%=      5-min Rain = 0
KWT1 140657Z 05010KT 28/21 A3005 RMK A01 T02760205  RH  065%=      5-min Rain = 0
KWT1 140658Z 05010KT 28/21 A3005 RMK A01 T02760205  RH  065%=      5-min Rain = 0
KWT1 140659Z 05010KT 28/21 A3005 RMK A01 T02760205  RH  065%=      5-min Rain = 0
KWT1 140700Z 05013KT 28/20 A3005 RMK A01 T02760204  RH  065%=      5-min Rain = 0
KWT1 140701Z 05011KT 28/20 A3005 RMK A01 T02760204  RH  065%=      5-min Rain = 0
KWT1 140702Z 05010KT 28/20 A3005 RMK A01 T02760204  RH  065%=      5-min Rain = 0
KWT1 140703Z 04010KT 28/20 A3005 RMK A01 T02760204  RH  065%=      5-min Rain = 0
KWT1 140704Z 05009KT 28/20 A3005 RMK A01 T02750204  RH  065%=      5-min Rain = 0
KWT1 140705Z 05009KT 28/20 A3005 RMK A01 T02750204  RH  065%=      5-min Rain = 0
KWT1 140706Z 05009KT 28/21 A3005 RMK A01 T02750205  RH  065%=      5-min Rain = 0
KWT1 140707Z 05009KT 28/20 A3005 RMK A01 T02750204  RH  065%=      5-min Rain = 0
KWT1 140708Z 05010KT 28/21 A3005 RMK A01 T02750205  RH  066%=      5-min Rain = 0
KWT1 140709Z 05012KT 28/21 A3005 RMK A01 T02750205  RH  066%=      5-min Rain = 0
KWT1 140710Z 05013KT 28/21 A3005 RMK A01 T02750205  RH  066%=      5-min Rain = 0
KWT1 140711Z 05012KT 28/21 A3005 RMK A01 T02750205  RH  066%=      5-min Rain = 0
KWT1 140712Z 05009KT 28/21 A3005 RMK A01 T02750205  RH  066%=      5-min Rain = 0
KWT1 140713Z 05009KT 28/21 A3005 RMK A01 T02750205  RH  066%=      5-min Rain = 0
KWT1 140714Z 04012KT 27/21 A3005 RMK A01 T02740205  RH  066%=      5-min Rain = 0
KWT1 140715Z 05011KT 27/21 A3005 RMK A01 T02740205  RH  066%=      5-min Rain = 0
KWT1 140716Z 05012KT 27/21 A3005 RMK A01 T02740205  RH  066%=      5-min Rain = 0
KWT1 140717Z 04010KT 27/21 A3005 RMK A01 T02740205  RH  066%=      5-min Rain = 0
KWT1 140718Z 05012G17KT 27/21 A3005 RMK A01 T02740205  RH  066%=      5-min Rain = 0
KWT1 140719Z 03011KT 27/21 A3005 RMK A01 T02740205  RH  066%=      5-min Rain = 0
KWT1 140720Z 04013G18KT 27/21 A3005 RMK A01 T02740205  RH  066%=      5-min Rain = 0
KWT1 140721Z 05014KT 27/21 A3005 RMK A01 T02740205  RH  066%=      5-min Rain = 0
KWT1 140722Z 04011KT 27/21 A3005 RMK A01 T02740206  RH  066%=      5-min Rain = 0
KWT1 140723Z 05010KT 27/21 A3005 RMK A01 T02740205  RH  066%=      5-min Rain = 0
KWT1 140724Z 05012KT 27/21 A3005 RMK A01 T02730205  RH  066%=      5-min Rain = 0
KWT1 140725Z 05014KT 27/21 A3005 RMK A01 T02730205  RH  066%=      5-min Rain = 0
KWT1 140726Z 05012KT 27/21 A3005 RMK A01 T02730205  RH  066%=      5-min Rain = 0
KWT1 140727Z 04012KT 27/21 A3005 RMK A01 T02730205  RH  066%=      5-min Rain = 0
KWT1 140728Z 05010KT 27/21 A3005 RMK A01 T02730205  RH  066%=      5-min Rain = 0
KWT1 140729Z 05011KT 27/21 A3005 RMK A01 T02730205  RH  066%=      5-min Rain = 0
KWT1 140730Z 05010KT 27/21 A3005 RMK A01 T02730205  RH  067%=      5-min Rain = 0
KWT1 140731Z 05012KT 27/21 A3005 RMK A01 T02720205  RH  067%=      5-min Rain = 0
KWT1 140732Z 05009KT 27/21 A3005 RMK A01 T02720205  RH  067%=      5-min Rain = 0
KWT1 140733Z 06011KT 27/21 A3005 RMK A01 T02720205  RH  067%=      5-min Rain = 0
KWT1 140734Z 05009KT 27/21 A3005 RMK A01 T02720205  RH  067%=      5-min Rain = 0
KWT1 140735Z 05010KT 27/21 A3005 RMK A01 T02710205  RH  067%=      5-min Rain = 0
KWT1 140736Z 05009KT 27/21 A3005 RMK A01 T02710206  RH  067%=      5-min Rain = 0
KWT1 140737Z 05010KT 27/21 A3005 RMK A01 T02710206  RH  067%=      5-min Rain = 0
KWT1 140738Z 06009KT 27/21 A3005 RMK A01 T02710206  RH  067%=      5-min Rain = 0
KWT1 140739Z 05009KT 27/21 A3005 RMK A01 T02710205  RH  067%=      5-min Rain = 0
KWT1 140740Z 05007KT 27/21 A3005 RMK A01 T02700205  RH  067%=      5-min Rain = 0
KWT1 140741Z 04009KT 27/21 A3005 RMK A01 T02700205  RH  067%=      5-min Rain = 0
KWT1 140742Z 05009KT 27/21 A3006 RMK A01 T02700205  RH  067%=      5-min Rain = 0
KWT1 140743Z 05008KT 27/21 A3005 RMK A01 T02700205  RH  067%=      5-min Rain = 0
KWT1 140744Z 05008KT 27/21 A3005 RMK A01 T02700205  RH  067%=      5-min Rain = 0
KWT1 140745Z 05007KT 27/21 A3005 RMK A01 T02700205  RH  068%=      5-min Rain = 0
KWT1 140746Z 05008KT 27/21 A3005 RMK A01 T02700205  RH  068%=      5-min Rain = 0
KWT1 140747Z 05009KT 27/21 A3005 RMK A01 T02700205  RH  068%=      5-min Rain = 0
KWT1 140748Z 05009KT 27/21 A3005 RMK A01 T02700205  RH  068%=      5-min Rain = 0
KWT1 140749Z 05010KT 27/20 A3005 RMK A01 T02690204  RH  067%=      5-min Rain = 0
KWT1 140750Z 05012KT 27/20 A3005 RMK A01 T02700204  RH  067%=      5-min Rain = 0
KWT1 140751Z 05008KT 27/21 A3005 RMK A01 T02710205  RH  067%=      5-min Rain = 0
KWT1 140752Z 05008KT 27/21 A3005 RMK A01 T02700205  RH  067%=      5-min Rain = 0
KWT1 140753Z 05008KT 27/21 A3005 RMK A01 T02700205  RH  067%=      5-min Rain = 0
KWT1 140754Z 05009KT 27/21 A3005 RMK A01 T02700205  RH  068%=      5-min Rain = 0
KWT1 140755Z 04010KT 27/21 A3005 RMK A01 T02700205  RH  068%=      5-min Rain = 0
KWT1 140756Z 04009KT 27/21 A3005 RMK A01 T02700205  RH  068%=      5-min Rain = 0
KWT1 140757Z 05011KT 27/21 A3005 RMK A01 T02700205  RH  068%=      5-min Rain = 0
KWT1 140758Z 04009KT 27/21 A3005 RMK A01 T02700205  RH  067%=      5-min Rain = 0
KWT1 140759Z 04013KT 27/20 A3006 RMK A01 T02700204  RH  067%=      5-min Rain = 0
KWT1 140800Z 04012KT 27/20 A3006 RMK A01 T02700204  RH  067%=      5-min Rain = 0
KWT1 140801Z 04012KT 27/21 A3006 RMK A01 T02700205  RH  067%=      5-min Rain = 0
KWT1 140802Z 04011KT 27/20 A3006 RMK A01 T02700204  RH  067%=      5-min Rain = 0
KWT1 140803Z 04012KT 27/20 A3006 RMK A01 T02700204  RH  067%=      5-min Rain = 0
KWT1 140804Z 05014KT 27/20 A3006 RMK A01 T02700204  RH  067%=      5-min Rain = 0
KWT1 140805Z 04013KT 27/20 A3006 RMK A01 T02700204  RH  067%=      5-min Rain = 0
KWT1 140806Z 04010KT 27/20 A3006 RMK A01 T02700203  RH  067%=      5-min Rain = 0
KWT1 140807Z 04010KT 27/20 A3006 RMK A01 T02700204  RH  067%=      5-min Rain = 0
KWT1 140808Z 04013KT 27/20 A3006 RMK A01 T02700204  RH  067%=      5-min Rain = 0
KWT1 140809Z 03013KT 27/20 A3006 RMK A01 T02700204  RH  067%=      5-min Rain = 0
KWT1 140810Z 04014KT 27/20 A3006 RMK A01 T02700204  RH  067%=      5-min Rain = 0
KWT1 140811Z 04011KT 27/20 A3006 RMK A01 T02700204  RH  067%=      5-min Rain = 0
KWT1 140812Z 04012KT 27/20 A3006 RMK A01 T02710204  RH  067%=      5-min Rain = 0
KWT1 140813Z 03012KT 27/20 A3006 RMK A01 T02710204  RH  067%=      5-min Rain = 0
KWT1 140814Z 04011KT 27/20 A3006 RMK A01 T02710204  RH  067%=      5-min Rain = 0
KWT1 140815Z 04010KT 27/20 A3006 RMK A01 T02700204  RH  067%=      5-min Rain = 0
KWT1 140816Z 04010KT 27/20 A3006 RMK A01 T02700204  RH  067%=      5-min Rain = 0
KWT1 140817Z 04014KT 27/20 A3006 RMK A01 T02700204  RH  067%=      5-min Rain = 0
KWT1 140818Z 04011G16KT 27/20 A3006 RMK A01 T02700204  RH  067%=      5-min Rain = 0
KWT1 140819Z 04010KT 27/20 A3006 RMK A01 T02700204  RH  067%=      5-min Rain = 0
KWT1 140820Z 05010KT 27/20 A3006 RMK A01 T02700204  RH  067%=      5-min Rain = 0
KWT1 140821Z 04012KT 27/20 A3006 RMK A01 T02690203  RH  067%=      5-min Rain = 0
KWT1 140822Z 03007KT 27/20 A3006 RMK A01 T02690204  RH  067%=      5-min Rain = 0
KWT1 140823Z 03012KT 27/20 A3006 RMK A01 T02690203  RH  067%=      5-min Rain = 0
KWT1 140824Z 04011KT 27/20 A3006 RMK A01 T02690203  RH  067%=      5-min Rain = 0
KWT1 140825Z 04010KT 27/20 A3006 RMK A01 T02690203  RH  067%=      5-min Rain = 0
KWT1 140826Z 03011KT 27/20 A3006 RMK A01 T02690203  RH  067%=      5-min Rain = 0
KWT1 140827Z 04010KT 27/20 A3006 RMK A01 T02680203  RH  067%=      5-min Rain = 0
KWT1 140828Z 04008KT 27/20 A3006 RMK A01 T02680203  RH  068%=      5-min Rain = 0
KWT1 140829Z 04012KT 27/20 A3006 RMK A01 T02680203  RH  068%=      5-min Rain = 0
KWT1 140830Z 04011KT 27/20 A3006 RMK A01 T02670203  RH  068%=      5-min Rain = 0
KWT1 140831Z 04010KT 27/20 A3006 RMK A01 T02670203  RH  068%=      5-min Rain = 0
KWT1 140832Z 03013KT 27/20 A3006 RMK A01 T02670203  RH  068%=      5-min Rain = 0
KWT1 140833Z 04011KT 27/20 A3006 RMK A01 T02670203  RH  068%=      5-min Rain = 0
KWT1 140834Z 04009KT 27/20 A3006 RMK A01 T02670203  RH  068%=      5-min Rain = 0
KWT1 140835Z 04009KT 27/20 A3006 RMK A01 T02670203  RH  068%=      5-min Rain = 0
KWT1 140836Z 04010KT 27/20 A3006 RMK A01 T02670203  RH  068%=      5-min Rain = 0
KWT1 140837Z 04012KT 27/20 A3006 RMK A01 T02660202  RH  068%=      5-min Rain = 0
KWT1 140838Z 04013KT 27/20 A3006 RMK A01 T02660203  RH  068%=      5-min Rain = 0
KWT1 140839Z 05012KT 27/20 A3006 RMK A01 T02660203  RH  068%=      5-min Rain = 0
KWT1 140840Z 04013KT 27/20 A3006 RMK A01 T02660202  RH  068%=      5-min Rain = 0
KWT1 140841Z 05011KT 27/20 A3006 RMK A01 T02660202  RH  068%=      5-min Rain = 0
KWT1 140842Z 05009KT 27/20 A3005 RMK A01 T02660203  RH  068%=      5-min Rain = 0
KWT1 140843Z 05009KT 27/20 A3005 RMK A01 T02660203  RH  068%=      5-min Rain = 0
KWT1 140844Z 06008KT 27/20 A3005 RMK A01 T02650202  RH  068%=      5-min Rain = 0
KWT1 140845Z 06008KT 27/20 A3005 RMK A01 T02650203  RH  069%=      5-min Rain = 0
KWT1 140846Z 05008KT 26/20 A3005 RMK A01 T02640203  RH  069%=      5-min Rain = 0
KWT1 140847Z 05009KT 26/20 A3005 RMK A01 T02640202  RH  069%=      5-min Rain = 0
KWT1 140848Z 05007KT 26/20 A3005 RMK A01 T02640203  RH  069%=      5-min Rain = 0
KWT1 140849Z 06007KT 26/20 A3005 RMK A01 T02630203  RH  069%=      5-min Rain = 0
KWT1 140850Z 05007KT 26/20 A3005 RMK A01 T02630203  RH  069%=      5-min Rain = 0
KWT1 140851Z 06007KT 26/20 A3004 RMK A01 T02630203  RH  070%=      5-min Rain = 0
KWT1 140852Z 06007KT 26/20 A3004 RMK A01 T02630203  RH  070%=      5-min Rain = 0
KWT1 140853Z 06007KT 26/20 A3004 RMK A01 T02620203  RH  070%=      5-min Rain = 0
KWT1 140854Z 06006KT 26/20 A3004 RMK A01 T02620203  RH  070%=      5-min Rain = 0
KWT1 140855Z 06006KT 26/20 A3004 RMK A01 T02620203  RH  070%=      5-min Rain = 0
KWT1 140856Z 06008G14KT 26/20 A3005 RMK A01 T02610203  RH  070%=      5-min Rain = 0
KWT1 140857Z 05011KT 26/20 A3005 RMK A01 T02620203  RH  070%=      5-min Rain = 0
KWT1 140858Z 05012KT 26/20 A3005 RMK A01 T02610203  RH  070%=      5-min Rain = 0
KWT1 140859Z 05013KT 26/20 A3005 RMK A01 T02620203  RH  070%=      5-min Rain = 0
KWT1 140900Z 04012KT 26/20 A3005 RMK A01 T02620203  RH  070%=      5-min Rain = 0
KWT1 140901Z 04011KT 26/20 A3005 RMK A01 T02620203  RH  070%=      5-min Rain = 0
KWT1 140902Z 05012KT 26/20 A3005 RMK A01 T02620203  RH  070%=      5-min Rain = 0
KWT1 140903Z 04012KT 26/20 A3005 RMK A01 T02620203  RH  070%=      5-min Rain = 0
KWT1 140904Z 04010KT 26/20 A3005 RMK A01 T02620203  RH  070%=      5-min Rain = 0
KWT1 140905Z 04011KT 26/20 A3006 RMK A01 T02620203  RH  070%=      5-min Rain = 0
KWT1 140906Z 04010KT 26/20 A3006 RMK A01 T02620203  RH  070%=      5-min Rain = 0
KWT1 140907Z 04012KT 26/20 A3006 RMK A01 T02610203  RH  070%=      5-min Rain = 0
KWT1 140908Z 04011KT 26/20 A3006 RMK A01 T02610203  RH  070%=      5-min Rain = 0
KWT1 140909Z 04011KT 26/20 A3006 RMK A01 T02610203  RH  070%=      5-min Rain = 0
KWT1 140910Z 05012KT 26/20 A3006 RMK A01 T02610203  RH  070%=      5-min Rain = 0
KWT1 140911Z 04011KT 26/20 A3006 RMK A01 T02610203  RH  070%=      5-min Rain = 0
KWT1 140912Z 04011KT 26/20 A3006 RMK A01 T02610203  RH  070%=      5-min Rain = 0
KWT1 140913Z 04011G16KT 26/20 A3006 RMK A01 T02610202  RH  070%=      5-min Rain = 0
KWT1 140914Z 04012KT 26/20 A3006 RMK A01 T02610202  RH  070%=      5-min Rain = 0
KWT1 140915Z 04012KT 26/20 A3006 RMK A01 T02610202  RH  070%=      5-min Rain = 0
KWT1 140916Z 05012KT 26/20 A3006 RMK A01 T02610202  RH  070%=      5-min Rain = 0
KWT1 140917Z 05012KT 26/20 A3006 RMK A01 T02610202  RH  070%=      5-min Rain = 0
KWT1 140918Z 04011KT 26/20 A3006 RMK A01 T02610202  RH  070%=      5-min Rain = 0
KWT1 140919Z 05014KT 26/20 A3006 RMK A01 T02610202  RH  070%=      5-min Rain = 0
KWT1 140920Z 05013KT 26/20 A3006 RMK A01 T02610202  RH  070%=      5-min Rain = 0
KWT1 140921Z 05010KT 26/20 A3006 RMK A01 T02610202  RH  070%=      5-min Rain = 0
KWT1 140922Z 04012KT 26/20 A3006 RMK A01 T02610202  RH  070%=      5-min Rain = 0
KWT1 140923Z 05014KT 26/20 A3006 RMK A01 T02610202  RH  070%=      5-min Rain = 0
KWT1 140924Z 05014KT 26/20 A3006 RMK A01 T02610202  RH  070%=      5-min Rain = 0
KWT1 140925Z 04010KT 26/20 A3006 RMK A01 T02610202  RH  070%=      5-min Rain = 0
KWT1 140926Z 05009KT 26/20 A3006 RMK A01 T02610202  RH  070%=      5-min Rain = 0
KWT1 140927Z 04013KT 26/20 A3006 RMK A01 T02600202  RH  070%=      5-min Rain = 0
KWT1 140928Z 05012KT 26/20 A3006 RMK A01 T02610202  RH  070%=      5-min Rain = 0
KWT1 140929Z 05009KT 26/20 A3006 RMK A01 T02610202  RH  070%=      5-min Rain = 0
KWT1 140930Z 04010KT 26/20 A3006 RMK A01 T02600202  RH  070%=      5-min Rain = 0
KWT1 140931Z 05008KT 26/20 A3006 RMK A01 T02600202  RH  070%=      5-min Rain = 0
KWT1 140932Z 05010KT 26/20 A3006 RMK A01 T02600202  RH  071%=      5-min Rain = 0
KWT1 140933Z 06009KT 26/20 A3006 RMK A01 T02590202  RH  071%=      5-min Rain = 0
KWT1 140934Z 05009KT 26/20 A3005 RMK A01 T02590202  RH  071%=      5-min Rain = 0
KWT1 140935Z 05007KT 26/20 A3005 RMK A01 T02590202  RH  071%=      5-min Rain = 0
KWT1 140936Z 05007KT 26/20 A3005 RMK A01 T02590202  RH  071%=      5-min Rain = 0
KWT1 140937Z 06008KT 26/20 A3005 RMK A01 T02580202  RH  071%=      5-min Rain = 0
KWT1 140938Z 06007KT 26/20 A3005 RMK A01 T02580202  RH  071%=      5-min Rain = 0
KWT1 140939Z 05007KT 26/20 A3005 RMK A01 T02580202  RH  071%=      5-min Rain = 0
KWT1 140940Z 05008KT 26/20 A3005 RMK A01 T02580202  RH  071%=      5-min Rain = 0
KWT1 140941Z 06007KT 26/20 A3005 RMK A01 T02570202  RH  072%=      5-min Rain = 0
KWT1 140942Z 05007KT 26/20 A3005 RMK A01 T02570202  RH  072%=      5-min Rain = 0
KWT1 140943Z 05008KT 26/20 A3005 RMK A01 T02570202  RH  072%=      5-min Rain = 0
KWT1 140944Z 04007KT 26/20 A3005 RMK A01 T02560202  RH  072%=      5-min Rain = 0
KWT1 140945Z 05007KT 26/20 A3005 RMK A01 T02560202  RH  072%=      5-min Rain = 0
KWT1 140946Z 05007KT 26/20 A3005 RMK A01 T02560202  RH  072%=      5-min Rain = 0
KWT1 140947Z 04007KT 26/20 A3005 RMK A01 T02560202  RH  072%=      5-min Rain = 0
KWT1 140948Z 04008KT 26/20 A3005 RMK A01 T02560202  RH  072%=      5-min Rain = 0
KWT1 140949Z 04006KT 26/20 A3005 RMK A01 T02560202  RH  072%=      5-min Rain = 0
KWT1 140950Z 05008KT 26/20 A3005 RMK A01 T02560202  RH  072%=      5-min Rain = 0
KWT1 140951Z 05008KT 26/20 A3005 RMK A01 T02560202  RH  072%=      5-min Rain = 0
KWT1 140952Z 05008KT 26/20 A3005 RMK A01 T02550202  RH  072%=      5-min Rain = 0
KWT1 140953Z 05007KT 26/20 A3005 RMK A01 T02560202  RH  072%=      5-min Rain = 0
KWT1 140954Z 05009KT 26/20 A3005 RMK A01 T02550202  RH  072%=      5-min Rain = 0
KWT1 140955Z 05008KT 26/20 A3005 RMK A01 T02550202  RH  072%=      5-min Rain = 0
KWT1 140956Z 04008KT 26/20 A3005 RMK A01 T02550201  RH  072%=      5-min Rain = 0
KWT1 140957Z 05009KT 26/20 A3005 RMK A01 T02550201  RH  072%=      5-min Rain = 0
KWT1 140958Z 05008KT 25/20 A3005 RMK A01 T02540201  RH  072%=      5-min Rain = 0
KWT1 140959Z 05008KT 26/20 A3005 RMK A01 T02550201  RH  072%=      5-min Rain = 0
KWT1 141000Z 04008KT 25/20 A3005 RMK A01 T02540201  RH  072%=      5-min Rain = 0
KWT1 141001Z 04010KT 25/20 A3005 RMK A01 T02540201  RH  072%=      5-min Rain = 0
KWT1 141002Z 04010KT 25/20 A3005 RMK A01 T02540201  RH  073%=      5-min Rain = 0
KWT1 141003Z 04009KT 25/20 A3005 RMK A01 T02540201  RH  072%=      5-min Rain = 0
KWT1 141004Z 04009KT 25/20 A3005 RMK A01 T02540201  RH  072%=      5-min Rain = 0
KWT1 141005Z 04008KT 25/20 A3005 RMK A01 T02540201  RH  072%=      5-min Rain = 0
KWT1 141006Z 03008KT 25/20 A3005 RMK A01 T02540201  RH  072%=      5-min Rain = 0
KWT1 141007Z 04009KT 25/20 A3005 RMK A01 T02540201  RH  072%=      5-min Rain = 0
KWT1 141008Z 04009KT 25/20 A3005 RMK A01 T02540201  RH  073%=      5-min Rain = 0
KWT1 141009Z 04010KT 25/20 A3006 RMK A01 T02540201  RH  073%=      5-min Rain = 0
KWT1 141010Z 04010KT 25/20 A3006 RMK A01 T02540201  RH  072%=      5-min Rain = 0
KWT1 141011Z 04008KT 25/20 A3006 RMK A01 T02540201  RH  072%=      5-min Rain = 0
KWT1 141012Z 04009KT 25/20 A3006 RMK A01 T02540201  RH  073%=      5-min Rain = 0
KWT1 141013Z 04008KT 25/20 A3006 RMK A01 T02530201  RH  073%=      5-min Rain = 0
KWT1 141014Z 04009KT 25/20 A3006 RMK A01 T02530201  RH  073%=      5-min Rain = 0
KWT1 141015Z 04011KT 25/20 A3006 RMK A01 T02530201  RH  073%=      5-min Rain = 0
KWT1 141016Z 04012KT 25/20 A3006 RMK A01 T02530201  RH  073%=      5-min Rain = 0
KWT1 141017Z 04010KT 25/20 A3006 RMK A01 T02530201  RH  073%=      5-min Rain = 0
KWT1 141018Z 04009KT 25/20 A3006 RMK A01 T02530200  RH  073%=      5-min Rain = 0
KWT1 141019Z 04009KT 25/20 A3006 RMK A01 T02530201  RH  073%=      5-min Rain = 0
KWT1 141020Z 04009KT 25/20 A3006 RMK A01 T02530200  RH  073%=      5-min Rain = 0
KWT1 141021Z 04009KT 25/20 A3006 RMK A01 T02530201  RH  073%=      5-min Rain = 0
KWT1 141022Z 03011KT 25/20 A3006 RMK A01 T02520200  RH  073%=      5-min Rain = 0
KWT1 141023Z 04012KT 25/20 A3006 RMK A01 T02520200  RH  073%=      5-min Rain = 0
KWT1 141024Z 04013KT 25/20 A3006 RMK A01 T02520200  RH  073%=      5-min Rain = 0
KWT1 141025Z 04011KT 25/20 A3006 RMK A01 T02520200  RH  073%=      5-min Rain = 0
KWT1 141026Z 04010KT 25/20 A3006 RMK A01 T02520200  RH  073%=      5-min Rain = 0
KWT1 141027Z 04010KT 25/20 A3006 RMK A01 T02520201  RH  073%=      5-min Rain = 0
KWT1 141028Z 04010KT 25/20 A3006 RMK A01 T02520200  RH  073%=      5-min Rain = 0
KWT1 141029Z 05010KT 25/20 A3006 RMK A01 T02520200  RH  073%=      5-min Rain = 0
KWT1 141030Z 04010KT 25/20 A3006 RMK A01 T02520200  RH  073%=      5-min Rain = 0
KWT1 141031Z 03010KT 25/20 A3006 RMK A01 T02520200  RH  073%=      5-min Rain = 0
KWT1 141032Z 04011KT 25/20 A3006 RMK A01 T02520200  RH  073%=      5-min Rain = 0
KWT1 141033Z 04012KT 25/20 A3006 RMK A01 T02520200  RH  073%=      5-min Rain = 0
KWT1 141034Z 04011KT 25/20 A3006 RMK A01 T02520200  RH  073%=      5-min Rain = 0
KWT1 141035Z 04012KT 25/20 A3006 RMK A01 T02520200  RH  073%=      5-min Rain = 0
KWT1 141036Z 04010KT 25/20 A3007 RMK A01 T02520200  RH  073%=      5-min Rain = 0
KWT1 141037Z 05010KT 25/20 A3007 RMK A01 T02520200  RH  073%=      5-min Rain = 0
KWT1 141038Z 04010KT 25/20 A3007 RMK A01 T02510200  RH  073%=      5-min Rain = 0
KWT1 141039Z 04014KT 25/20 A3007 RMK A01 T02510200  RH  073%=      5-min Rain = 0
KWT1 141040Z 04012KT 25/20 A3007 RMK A01 T02510200  RH  073%=      5-min Rain = 0
KWT1 141041Z 03010KT 25/20 A3007 RMK A01 T02520200  RH  073%=      5-min Rain = 0
KWT1 141042Z 04011KT 25/20 A3007 RMK A01 T02520200  RH  073%=      5-min Rain = 0
KWT1 141043Z 03011KT 25/20 A3007 RMK A01 T02510200  RH  073%=      5-min Rain = 0
KWT1 141044Z 03012KT 25/20 A3007 RMK A01 T02510200  RH  073%=      5-min Rain = 0
KWT1 141045Z 04010KT 25/20 A3007 RMK A01 T02510200  RH  073%=      5-min Rain = 0
KWT1 141046Z 04009G14KT 25/20 A3007 RMK A01 T02510200  RH  073%=      5-min Rain = 0
KWT1 141047Z 04011KT 25/20 A3007 RMK A01 T02510200  RH  074%=      5-min Rain = 0
KWT1 141048Z 04011KT 25/20 A3007 RMK A01 T02500200  RH  074%=      5-min Rain = 0
KWT1 141049Z 04010KT 25/20 A3007 RMK A01 T02500200  RH  074%=      5-min Rain = 0
KWT1 141050Z 04009KT 25/20 A3007 RMK A01 T02500200  RH  074%=      5-min Rain = 0
KWT1 141051Z 04010KT 25/20 A3007 RMK A01 T02500200  RH  074%=      5-min Rain = 0
KWT1 141052Z 04010KT 25/20 A3007 RMK A01 T02500200  RH  074%=      5-min Rain = 0
KWT1 141053Z 04008KT 25/20 A3007 RMK A01 T02500200  RH  074%=      5-min Rain = 0
KWT1 141054Z 04012KT 25/20 A3007 RMK A01 T02500200  RH  074%=      5-min Rain = 0
KWT1 141055Z 04010KT 25/20 A3007 RMK A01 T02500200  RH  074%=      5-min Rain = 0
KWT1 141056Z 04012KT 25/20 A3008 RMK A01 T02490199  RH  074%=      5-min Rain = 0
KWT1 141057Z 04012KT 25/20 A3008 RMK A01 T02490199  RH  074%=      5-min Rain = 0
KWT1 141058Z 04010KT 25/20 A3008 RMK A01 T02490199  RH  074%=      5-min Rain = 0
KWT1 141059Z 04010G15KT 25/20 A3008 RMK A01 T02490199  RH  074%=      5-min Rain = 0
KWT1 141100Z 04012KT 25/20 A3008 RMK A01 T02490199  RH  074%=      5-min Rain = 0
KWT1 141101Z 03013KT 25/20 A3008 RMK A01 T02490199  RH  074%=      5-min Rain = 0
KWT1 141102Z 03014KT 25/20 A3008 RMK A01 T02490199  RH  074%=      5-min Rain = 0
KWT1 141103Z 03011KT 25/20 A3008 RMK A01 T02490199  RH  073%=      5-min Rain = 0
KWT1 141104Z 04012KT 25/20 A3008 RMK A01 T02490199  RH  073%=      5-min Rain = 0
KWT1 141105Z 04011KT 25/20 A3008 RMK A01 T02490199  RH  073%=      5-min Rain = 0
KWT1 141106Z 04011KT 25/20 A3008 RMK A01 T02490199  RH  073%=      5-min Rain = 0
KWT1 141107Z 04012KT 25/20 A3008 RMK A01 T02490199  RH  074%=      5-min Rain = 0
KWT1 141108Z 04011KT 25/20 A3008 RMK A01 T02490199  RH  074%=      5-min Rain = 0
KWT1 141109Z 03010KT 25/20 A3008 RMK A01 T02490198  RH  074%=      5-min Rain = 0
KWT1 141110Z 04014KT 25/20 A3008 RMK A01 T02480198  RH  074%=      5-min Rain = 0
KWT1 141111Z 04011KT 25/20 A3008 RMK A01 T02480198  RH  074%=      5-min Rain = 0
KWT1 141112Z 04011KT 25/20 A3008 RMK A01 T02480198  RH  074%=      5-min Rain = 0
KWT1 141113Z 04009KT 25/20 A3008 RMK A01 T02480198  RH  074%=      5-min Rain = 0
KWT1 141114Z 04010KT 25/20 A3008 RMK A01 T02480198  RH  074%=      5-min Rain = 0
KWT1 141115Z 04010KT 25/20 A3009 RMK A01 T02470198  RH  074%=      5-min Rain = 0
KWT1 141116Z 03010KT 25/20 A3009 RMK A01 T02480199  RH  074%=      5-min Rain = 0
KWT1 141117Z 04010KT 25/20 A3009 RMK A01 T02470198  RH  074%=      5-min Rain = 0
KWT1 141118Z 04011G16KT 25/20 A3009 RMK A01 T02460198  RH  074%=      5-min Rain = 0
KWT1 141119Z 04011KT 25/20 A3009 RMK A01 T02470198  RH  074%=      5-min Rain = 0
KWT1 141120Z 04013KT 25/20 A3009 RMK A01 T02470198  RH  074%=      5-min Rain = 0
KWT1 141121Z 03011KT 25/20 A3009 RMK A01 T02470198  RH  074%=      5-min Rain = 0
KWT1 141122Z 03010KT 25/20 A3009 RMK A01 T02470198  RH  074%=      5-min Rain = 0
KWT1 141123Z 03012KT 25/20 A3009 RMK A01 T02470197  RH  074%=      5-min Rain = 0
KWT1 141124Z 04010KT 25/20 A3009 RMK A01 T02470197  RH  074%=      5-min Rain = 0
KWT1 141125Z 04009KT 25/20 A3009 RMK A01 T02470197  RH  074%=      5-min Rain = 0
KWT1 141126Z 03010KT 25/20 A3009 RMK A01 T02460197  RH  074%=      5-min Rain = 0
KWT1 141127Z 03007KT 25/20 A3009 RMK A01 T02460197  RH  074%=      5-min Rain = 0
KWT1 141128Z 04012KT 25/20 A3009 RMK A01 T02460197  RH  074%=      5-min Rain = 0
KWT1 141129Z 04011KT 25/20 A3009 RMK A01 T02450196  RH  074%=      5-min Rain = 0
KWT1 141130Z 04013KT 25/20 A3009 RMK A01 T02460197  RH  074%=      5-min Rain = 0
KWT1 141131Z 04013KT 25/20 A3009 RMK A01 T02450196  RH  074%=      5-min Rain = 0
KWT1 141132Z 04010KT 25/20 A3009 RMK A01 T02450196  RH  074%=      5-min Rain = 0
KWT1 141133Z 03011KT 25/20 A3009 RMK A01 T02450196  RH  074%=      5-min Rain = 0
KWT1 141134Z 03012KT 25/20 A3009 RMK A01 T02450196  RH  074%=      5-min Rain = 0
KWT1 141135Z 03014KT 25/20 A3009 RMK A01 T02450196  RH  074%=      5-min Rain = 0
KWT1 141136Z 03013KT 24/20 A3009 RMK A01 T02440196  RH  074%=      5-min Rain = 0
KWT1 141137Z 03014KT 24/20 A3009 RMK A01 T02440196  RH  074%=      5-min Rain = 0
KWT1 141138Z 03014KT 24/20 A3009 RMK A01 T02440195  RH  074%=      5-min Rain = 0
KWT1 141139Z 03013KT 24/20 A3009 RMK A01 T02440196  RH  074%=      5-min Rain = 0
KWT1 141140Z 03014KT 24/20 A3009 RMK A01 T02440195  RH  074%=      5-min Rain = 0
KWT1 141141Z 03013KT 24/20 A3009 RMK A01 T02440195  RH  074%=      5-min Rain = 0
KWT1 141142Z 04012KT 24/20 A3009 RMK A01 T02440195  RH  074%=      5-min Rain = 0
KWT1 141143Z 04012KT 24/20 A3009 RMK A01 T02440196  RH  074%=      5-min Rain = 0
KWT1 141144Z 04013KT 24/20 A3009 RMK A01 T02440196  RH  075%=      5-min Rain = 0
KWT1 141145Z 03013KT 24/20 A3009 RMK A01 T02440196  RH  075%=      5-min Rain = 0
KWT1 141146Z 04013KT 24/20 A3009 RMK A01 T02430196  RH  075%=      5-min Rain = 0
KWT1 141147Z 04011KT 24/20 A3009 RMK A01 T02430196  RH  075%=      5-min Rain = 0
KWT1 141148Z 03010KT 24/20 A3009 RMK A01 T02430196  RH  075%=      5-min Rain = 0
KWT1 141149Z 04011KT 24/20 A3009 RMK A01 T02430196  RH  075%=      5-min Rain = 0
KWT1 141150Z 04009KT 24/20 A3009 RMK A01 T02420196  RH  075%=      5-min Rain = 0
KWT1 141151Z 04010KT 24/20 A3009 RMK A01 T02420196  RH  076%=      5-min Rain = 0
KWT1 141152Z 04012KT 24/20 A301 RMK A01 T02420196  RH  076%=      5-min Rain = 0
KWT1 141153Z 04010KT 24/20 A301 RMK A01 T02420197  RH  076%=      5-min Rain = 0
KWT1 141154Z 03010KT 24/20 A301 RMK A01 T02410196  RH  076%=      5-min Rain = 0
KWT1 141155Z 04011KT 24/20 A301 RMK A01 T02410196  RH  076%=      5-min Rain = 0
KWT1 141156Z 03012KT 24/20 A301 RMK A01 T02410197  RH  076%=      5-min Rain = 0
KWT1 141157Z 03012KT 24/20 A301 RMK A01 T02410197  RH  076%=      5-min Rain = 0
KWT1 141158Z 03010KT 24/20 A301 RMK A01 T02410197  RH  076%=      5-min Rain = 0
KWT1 141159Z 04011KT 24/20 A301 RMK A01 T02410197  RH  076%=      5-min Rain = 0
KWT1 141200Z 04010KT 24/20 A301 RMK A01 T02410197  RH  076%=      5-min Rain = 0
KWT1 141201Z 04011KT 24/20 A301 RMK A01 T02400197  RH  077%=      5-min Rain = 0
KWT1 141202Z 04013KT 24/20 A301 RMK A01 T02400197  RH  077%=      5-min Rain = 0
KWT1 141203Z 03011KT 24/20 A301 RMK A01 T02400197  RH  077%=      5-min Rain = 0
KWT1 141204Z 04011KT 24/20 A301 RMK A01 T02400197  RH  077%=      5-min Rain = 0
KWT1 141205Z 04010KT 24/20 A3011 RMK A01 T02400198  RH  077%=      5-min Rain = 0
KWT1 141206Z 03012G19KT 24/20 A3011 RMK A01 T02400198  RH  077%=      5-min Rain = 0
KWT1 141207Z 04016KT 24/20 A3011 RMK A01 T02400198  RH  078%=      5-min Rain = 0
KWT1 141208Z 04015G20KT 24/20 A3011 RMK A01 T02390198  RH  078%=      5-min Rain = 0
KWT1 141209Z 05018KT 24/20 A3011 RMK A01 T02390198  RH  078%=      5-min Rain = 0
KWT1 141210Z 04015KT 24/20 A3011 RMK A01 T02400199  RH  078%=      5-min Rain = 0
KWT1 141211Z 04013KT 24/20 A3011 RMK A01 T02400199  RH  078%=      5-min Rain = 0
KWT1 141212Z 04013KT 24/20 A3011 RMK A01 T02400199  RH  078%=      5-min Rain = 0
KWT1 141213Z 03011KT 24/20 A3011 RMK A01 T02400199  RH  078%=      5-min Rain = 0
KWT1 141214Z 03010KT 24/20 A3011 RMK A01 T02390199  RH  078%=      5-min Rain = 0
KWT1 141215Z 04013KT 24/20 A3011 RMK A01 T02390199  RH  078%=      5-min Rain = 0
KWT1 141216Z 04013KT 24/20 A3011 RMK A01 T02390199  RH  078%=      5-min Rain = 0
KWT1 141217Z 04011KT 24/20 A3011 RMK A01 T02390200  RH  078%=      5-min Rain = 0
KWT1 141218Z 04011KT 24/20 A3011 RMK A01 T02390199  RH  078%=      5-min Rain = 0
KWT1 141219Z 04012G18KT 24/20 A3011 RMK A01 T02390199  RH  079%=      5-min Rain = 0
KWT1 141220Z 04013G18KT 24/20 A3011 RMK A01 T02390200  RH  079%=      5-min Rain = 0
KWT1 141221Z 04014KT 24/20 A3011 RMK A01 T02380199  RH  079%=      5-min Rain = 0
KWT1 141222Z 04012KT 24/20 A3011 RMK A01 T02390200  RH  079%=      5-min Rain = 0
KWT1 141223Z 03012KT 24/20 A3011 RMK A01 T02380200  RH  079%=      5-min Rain = 0
KWT1 141224Z 03014KT 24/20 A3011 RMK A01 T02390200  RH  079%=      5-min Rain = 0
KWT1 141225Z 04014KT 24/20 A3011 RMK A01 T02380200  RH  079%=      5-min Rain = 0
KWT1 141226Z 03015KT 24/20 A3011 RMK A01 T02390200  RH  079%=      5-min Rain = 0
KWT1 141227Z 04015KT 24/20 A3011 RMK A01 T02390200  RH  079%=      5-min Rain = 0
KWT1 141228Z 05014KT 24/20 A3011 RMK A01 T02390200  RH  079%=      5-min Rain = 0
KWT1 141229Z 03012KT 24/20 A3011 RMK A01 T02390200  RH  079%=      5-min Rain = 0
KWT1 141230Z 04009KT 24/20 A3011 RMK A01 T02390200  RH  079%=      5-min Rain = 0
KWT1 141231Z 05010KT 24/20 A3011 RMK A01 T02390200  RH  079%=      5-min Rain = 0
KWT1 141232Z 04011KT 24/20 A3011 RMK A01 T02390201  RH  079%=      5-min Rain = 0
KWT1 141233Z 04012KT 24/20 A3011 RMK A01 T02390200  RH  079%=      5-min Rain = 0
KWT1 141234Z 04013KT 24/20 A3011 RMK A01 T02390200  RH  079%=      5-min Rain = 0
KWT1 141235Z 04013KT 24/20 A3011 RMK A01 T02400200  RH  079%=      5-min Rain = 0
KWT1 141236Z 05012KT 24/20 A3011 RMK A01 T02400201  RH  078%=      5-min Rain = 0
KWT1 141237Z 04012KT 24/20 A3011 RMK A01 T02410201  RH  078%=      5-min Rain = 0
KWT1 141238Z 04015KT 24/20 A3011 RMK A01 T02400201  RH  078%=      5-min Rain = 0
KWT1 141239Z 04012KT 24/20 A3011 RMK A01 T02400200  RH  078%=      5-min Rain = 0
KWT1 141240Z 05014KT 24/20 A3011 RMK A01 T02400201  RH  078%=      5-min Rain = 0
KWT1 141241Z 05013KT 24/20 A3011 RMK A01 T02410200  RH  078%=      5-min Rain = 0
KWT1 141242Z 04011KT 24/20 A3011 RMK A01 T02410200  RH  078%=      5-min Rain = 0
KWT1 141243Z 04011KT 24/20 A3011 RMK A01 T02410200  RH  078%=      5-min Rain = 0
KWT1 141244Z 04011KT 24/20 A3011 RMK A01 T02410201  RH  078%=      5-min Rain = 0
KWT1 141245Z 04011KT 24/20 A3011 RMK A01 T02410201  RH  078%=      5-min Rain = 0
KWT1 141246Z 05011KT 24/20 A3011 RMK A01 T02410201  RH  078%=      5-min Rain = 0
KWT1 141247Z 04010KT 24/20 A3011 RMK A01 T02410200  RH  078%=      5-min Rain = 0
KWT1 141248Z 04009KT 24/20 A3011 RMK A01 T02410200  RH  078%=      5-min Rain = 0
KWT1 141249Z 04012KT 24/20 A3011 RMK A01 T02420200  RH  078%=      5-min Rain = 0
KWT1 141250Z 03010KT 24/20 A3011 RMK A01 T02420200  RH  078%=      5-min Rain = 0
KWT1 141251Z 03009KT 24/20 A3011 RMK A01 T02420200  RH  078%=      5-min Rain = 0
KWT1 141252Z 04009KT 24/20 A3012 RMK A01 T02420200  RH  078%=      5-min Rain = 0
KWT1 141253Z 03010KT 24/20 A3012 RMK A01 T02420201  RH  078%=      5-min Rain = 0
KWT1 141254Z 03011KT 24/20 A3012 RMK A01 T02420200  RH  077%=      5-min Rain = 0
KWT1 141255Z 03011G16KT 24/20 A3012 RMK A01 T02420200  RH  077%=      5-min Rain = 0
KWT1 141256Z 04012KT 24/20 A3012 RMK A01 T02430200  RH  077%=      5-min Rain = 0
KWT1 141257Z 04012KT 24/20 A3012 RMK A01 T02430200  RH  077%=      5-min Rain = 0
KWT1 141258Z 03009KT 24/20 A3012 RMK A01 T02430200  RH  077%=      5-min Rain = 0
KWT1 141259Z 03011KT 24/20 A3012 RMK A01 T02440200  RH  077%=      5-min Rain = 0
KWT1 141300Z 03009KT 24/20 A3012 RMK A01 T02440200  RH  077%=      5-min Rain = 0
KWT1 141301Z 04010KT 24/20 A3012 RMK A01 T02440201  RH  077%=      5-min Rain = 0
KWT1 141302Z 04012KT 24/20 A3012 RMK A01 T02440201  RH  077%=      5-min Rain = 0
KWT1 141303Z 03009KT 24/20 A3012 RMK A01 T02440201  RH  077%=      5-min Rain = 0
KWT1 141304Z 03015KT 25/20 A3012 RMK A01 T02450201  RH  077%=      5-min Rain = 0
KWT1 141305Z 03015KT 24/20 A3012 RMK A01 T02440200  RH  076%=      5-min Rain = 0
KWT1 141306Z 02014KT 25/20 A3012 RMK A01 T02450200  RH  076%=      5-min Rain = 0
KWT1 141307Z 02016KT 24/20 A3012 RMK A01 T02440200  RH  076%=      5-min Rain = 0
KWT1 141308Z 03014KT 24/20 A3012 RMK A01 T02440200  RH  076%=      5-min Rain = 0
KWT1 141309Z 03014G19KT 24/20 A3012 RMK A01 T02440200  RH  076%=      5-min Rain = 0
KWT1 141310Z 03015KT 24/20 A3012 RMK A01 T02440200  RH  076%=      5-min Rain = 0
KWT1 141311Z 03015KT 25/20 A3012 RMK A01 T02450200  RH  076%=      5-min Rain = 0
KWT1 141312Z 04013KT 25/20 A3012 RMK A01 T02450200  RH  076%=      5-min Rain = 0
KWT1 141313Z 04013KT 25/20 A3012 RMK A01 T02460200  RH  076%=      5-min Rain = 0
KWT1 141314Z 04014KT 25/20 A3012 RMK A01 T02460201  RH  076%=      5-min Rain = 0
KWT1 141315Z 03013KT 25/20 A3012 RMK A01 T02460200  RH  076%=      5-min Rain = 0
KWT1 141316Z 03014KT 25/20 A3012 RMK A01 T02460200  RH  076%=      5-min Rain = 0
KWT1 141317Z 03016KT 25/20 A3012 RMK A01 T02460201  RH  076%=      5-min Rain = 0
KWT1 141318Z 03013KT 25/20 A3013 RMK A01 T02460200  RH  076%=      5-min Rain = 0
KWT1 141319Z 03013KT 25/20 A3012 RMK A01 T02460201  RH  076%=      5-min Rain = 0
KWT1 141320Z 04015G20KT 25/20 A3012 RMK A01 T02460201  RH  076%=      5-min Rain = 0
KWT1 141321Z 03013G18KT 25/20 A3012 RMK A01 T02460201  RH  076%=      5-min Rain = 0
KWT1 141322Z 03014KT 25/20 A3012 RMK A01 T02460201  RH  076%=      5-min Rain = 0
KWT1 141323Z 03013KT 25/20 A3012 RMK A01 T02460200  RH  076%=      5-min Rain = 0
KWT1 141324Z 02014KT 25/20 A3013 RMK A01 T02460201  RH  076%=      5-min Rain = 0
KWT1 141325Z 03013KT 25/20 A3013 RMK A01 T02460200  RH  076%=      5-min Rain = 0
KWT1 141326Z 04014KT 25/20 A3013 RMK A01 T02460201  RH  076%=      5-min Rain = 0
KWT1 141327Z 03014KT 25/20 A3013 RMK A01 T02460201  RH  076%=      5-min Rain = 0
KWT1 141328Z 03017KT 25/20 A3013 RMK A01 T02460201  RH  076%=      5-min Rain = 0
KWT1 141329Z 03016KT 25/20 A3013 RMK A01 T02460201  RH  076%=      5-min Rain = 0
KWT1 141330Z 03014KT 25/20 A3013 RMK A01 T02450201  RH  076%=      5-min Rain = 0
KWT1 141331Z 03010G15KT 25/20 A3013 RMK A01 T02450201  RH  076%=      5-min Rain = 0
KWT1 141332Z 03014KT 25/20 A3013 RMK A01 T02460202  RH  076%=      5-min Rain = 0
KWT1 141333Z 03015G20KT 25/20 A3013 RMK A01 T02470202  RH  076%=      5-min Rain = 0
KWT1 141334Z 02012G17KT 25/20 A3013 RMK A01 T02460202  RH  076%=      5-min Rain = 0
KWT1 141335Z 03017KT 25/20 A3013 RMK A01 T02460202  RH  076%=      5-min Rain = 0
KWT1 141336Z 03013KT 25/20 A3013 RMK A01 T02460202  RH  077%=      5-min Rain = 0
KWT1 141337Z 03013G18KT 25/20 A3013 RMK A01 T02450202  RH  077%=      5-min Rain = 0
KWT1 141338Z 04015G20KT 25/20 A3013 RMK A01 T02450202  RH  077%=      5-min Rain = 0
KWT1 141339Z 03014G19KT 25/20 A3013 RMK A01 T02460203  RH  077%=      5-min Rain = 0
KWT1 141340Z 02011KT 25/20 A3013 RMK A01 T02450202  RH  077%=      5-min Rain = 0
KWT1 141341Z 02010KT 25/20 A3013 RMK A01 T02450202  RH  077%=      5-min Rain = 0
KWT1 141342Z 02013KT 25/20 A3013 RMK A01 T02460202  RH  076%=      5-min Rain = 0
KWT1 141343Z 04014KT 25/20 A3013 RMK A01 T02470203  RH  076%=      5-min Rain = 0
KWT1 141344Z 04014KT 25/20 A3013 RMK A01 T02470202  RH  076%=      5-min Rain = 0
KWT1 141345Z 04014KT 25/20 A3014 RMK A01 T02460202  RH  076%=      5-min Rain = 0
KWT1 141346Z 02014G19KT 25/20 A3014 RMK A01 T02460202  RH  077%=      5-min Rain = 0
KWT1 141347Z 03011KT 25/20 A3014 RMK A01 T02460202  RH  076%=      5-min Rain = 0
KWT1 141348Z 04012KT 25/20 A3014 RMK A01 T02460202  RH  077%=      5-min Rain = 0
KWT1 141349Z 04014KT 25/20 A3014 RMK A01 T02460202  RH  077%=      5-min Rain = 0
KWT1 141350Z 04015KT 25/20 A3014 RMK A01 T02460202  RH  077%=      5-min Rain = 0
KWT1 141351Z 03017KT 25/20 A3014 RMK A01 T02450202  RH  077%=      5-min Rain = 0
KWT1 141352Z 03017KT 25/20 A3014 RMK A01 T02450201  RH  076%=      5-min Rain = 0
KWT1 141353Z 03017KT 24/20 A3014 RMK A01 T02440200  RH  077%=      5-min Rain = 0
KWT1 141354Z 03015KT 24/20 A3014 RMK A01 T02440200  RH  077%=      5-min Rain = 0
KWT1 141355Z 03012KT 25/20 A3014 RMK A01 T02450200  RH  076%=      5-min Rain = 0
KWT1 141356Z 02015KT 25/20 A3014 RMK A01 T02450200  RH  076%=      5-min Rain = 0
KWT1 141357Z 03015KT 25/20 A3014 RMK A01 T02450199  RH  075%=      5-min Rain = 0
KWT1 141358Z 03012KT 25/20 A3014 RMK A01 T02450199  RH  075%=      5-min Rain = 0
KWT1 141359Z 02013KT 25/20 A3014 RMK A01 T02450199  RH  075%=      5-min Rain = 0
KWT1 141400Z 02015KT 25/20 A3015 RMK A01 T02450198  RH  075%=      5-min Rain = 0
KWT1 141401Z 02013KT 25/20 A3014 RMK A01 T02450196  RH  074%=      5-min Rain = 0
KWT1 141402Z 01013KT 25/20 A3015 RMK A01 T02450197  RH  074%=      5-min Rain = 0
KWT1 141403Z 01015KT 24/20 A3015 RMK A01 T02440195  RH  074%=      5-min Rain = 0
KWT1 141404Z 02012KT 24/20 A3015 RMK A01 T02440195  RH  074%=      5-min Rain = 0
KWT1 141405Z 02015KT 24/20 A3015 RMK A01 T02430195  RH  075%=      5-min Rain = 0
KWT1 141406Z 02012KT 24/20 A3015 RMK A01 T02440196  RH  074%=      5-min Rain = 0
KWT1 141407Z 02012KT 24/20 A3015 RMK A01 T02440196  RH  074%=      5-min Rain = 0
KWT1 141408Z 03016KT 24/20 A3015 RMK A01 T02440196  RH  074%=      5-min Rain = 0
KWT1 141409Z 02013KT 24/20 A3015 RMK A01 T02440196  RH  074%=      5-min Rain = 0
KWT1 141410Z 03012KT 25/20 A3015 RMK A01 T02450196  RH  074%=      5-min Rain = 0
KWT1 141411Z 03012KT 25/20 A3015 RMK A01 T02450196  RH  074%=      5-min Rain = 0
KWT1 141412Z 02012KT 25/20 A3015 RMK A01 T02460196  RH  074%=      5-min Rain = 0
KWT1 141413Z 02011KT 25/20 A3015 RMK A01 T02460195  RH  073%=      5-min Rain = 0
KWT1 141414Z 03012KT 25/20 A3016 RMK A01 T02460196  RH  073%=      5-min Rain = 0
KWT1 141415Z 02011KT 25/20 A3016 RMK A01 T02460195  RH  073%=      5-min Rain = 0
KWT1 141416Z 02011KT 25/20 A3016 RMK A01 T02470195  RH  073%=      5-min Rain = 0
KWT1 141417Z 02011KT 25/20 A3016 RMK A01 T02480196  RH  073%=      5-min Rain = 0
KWT1 141418Z 02012KT 25/20 A3016 RMK A01 T02490196  RH  072%=      5-min Rain = 0
KWT1 141419Z 03012G17KT 25/20 A3016 RMK A01 T02500196  RH  072%=      5-min Rain = 0
KWT1 141420Z 03012KT 25/20 A3016 RMK A01 T02500197  RH  072%=      5-min Rain = 0
KWT1 141421Z 01009KT 25/20 A3016 RMK A01 T02500197  RH  073%=      5-min Rain = 0
KWT1 141422Z 03011KT 25/20 A3016 RMK A01 T02500197  RH  072%=      5-min Rain = 0
KWT1 141423Z 02011KT 25/20 A3016 RMK A01 T02510197  RH  072%=      5-min Rain = 0
KWT1 141424Z 02012KT 25/20 A3016 RMK A01 T02510196  RH  071%=      5-min Rain = 0
KWT1 141425Z 03010KT 25/20 A3016 RMK A01 T02510196  RH  072%=      5-min Rain = 0
KWT1 141426Z 02010KT 25/20 A3016 RMK A01 T02510197  RH  072%=      5-min Rain = 0
KWT1 141427Z 03010G15KT 25/20 A3016 RMK A01 T02520197  RH  071%=      5-min Rain = 0
KWT1 141428Z 02012KT 25/20 A3016 RMK A01 T02530197  RH  071%=      5-min Rain = 0
KWT1 141429Z 02014KT 25/20 A3016 RMK A01 T02540197  RH  071%=      5-min Rain = 0
KWT1 141430Z 03014KT 25/20 A3016 RMK A01 T02530196  RH  071%=      5-min Rain = 0
KWT1 141431Z 02012KT 25/20 A3016 RMK A01 T02520196  RH  071%=      5-min Rain = 0
KWT1 141432Z 02011KT 25/20 A3016 RMK A01 T02530197  RH  071%=      5-min Rain = 0
KWT1 141433Z 03012G17KT 26/20 A3016 RMK A01 T02550197  RH  070%=      5-min Rain = 0
KWT1 141434Z 03013KT 26/20 A3016 RMK A01 T02560197  RH  070%=      5-min Rain = 0
KWT1 141435Z 02013KT 26/20 A3016 RMK A01 T02550197  RH  070%=      5-min Rain = 0
KWT1 141436Z 02011KT 26/20 A3016 RMK A01 T02550197  RH  070%=      5-min Rain = 0
KWT1 141437Z 01013G18KT 26/20 A3016 RMK A01 T02550196  RH  070%=      5-min Rain = 0
KWT1 141438Z 02012KT 26/20 A3016 RMK A01 T02550196  RH  070%=      5-min Rain = 0
KWT1 141439Z 02014KT 25/20 A3016 RMK A01 T02540196  RH  070%=      5-min Rain = 0
KWT1 141440Z 02015G20KT 25/20 A3016 RMK A01 T02530196  RH  071%=      5-min Rain = 0
KWT1 141441Z 03019KT 25/20 A3016 RMK A01 T02530196  RH  071%=      5-min Rain = 0
KWT1 141442Z 03017KT 25/20 A3017 RMK A01 T02520196  RH  071%=      5-min Rain = 0
KWT1 141443Z 02017KT 25/20 A3017 RMK A01 T02500195  RH  071%=      5-min Rain = 0
KWT1 141444Z 02016KT 25/20 A3017 RMK A01 T02500195  RH  072%=      5-min Rain = 0
KWT1 141445Z 03012KT 25/20 A3017 RMK A01 T02500196  RH  072%=      5-min Rain = 0
KWT1 141446Z 03015G20KT 25/20 A3017 RMK A01 T02520197  RH  071%=      5-min Rain = 0
KWT1 141447Z 02017G22KT 25/20 A3017 RMK A01 T02530196  RH  071%=      5-min Rain = 0
KWT1 141448Z 03017KT 25/20 A3017 RMK A01 T02530196  RH  071%=      5-min Rain = 0
KWT1 141449Z 03018KT 25/20 A3017 RMK A01 T02520195  RH  071%=      5-min Rain = 0
KWT1 141450Z 03014KT 25/20 A3017 RMK A01 T02510195  RH  071%=      5-min Rain = 0
KWT1 141451Z 02012G18KT 25/20 A3017 RMK A01 T02510196  RH  071%=      5-min Rain = 0
KWT1 141452Z 02013KT 25/20 A3017 RMK A01 T02530195  RH  070%=      5-min Rain = 0
KWT1 141453Z 01015KT 25/20 A3017 RMK A01 T02530195  RH  070%=      5-min Rain = 0
KWT1 141454Z 02015KT 25/20 A3017 RMK A01 T02540195  RH  070%=      5-min Rain = 0
KWT1 141455Z 02016KT 25/20 A3017 RMK A01 T02540195  RH  070%=      5-min Rain = 0
KWT1 141456Z 03014KT 26/20 A3017 RMK A01 T02550196  RH  070%=      5-min Rain = 0
KWT1 141457Z 03013KT 26/20 A3017 RMK A01 T02560195  RH  069%=      5-min Rain = 0
KWT1 141458Z 04017KT 26/20 A3017 RMK A01 T02580196  RH  069%=      5-min Rain = 0
KWT1 141459Z 03017KT 26/20 A3017 RMK A01 T02580196  RH  068%=      5-min Rain = 0
KWT1 141500Z 04015KT 26/20 A3017 RMK A01 T02580196  RH  069%=      5-min Rain = 0
KWT1 141501Z 03013KT 26/20 A3017 RMK A01 T02590197  RH  069%=      5-min Rain = 0
KWT1 141502Z 03012KT 26/20 A3017 RMK A01 T02600196  RH  068%=      5-min Rain = 0
KWT1 141503Z 04014G20KT 26/20 A3017 RMK A01 T02580196  RH  068%=      5-min Rain = 0
KWT1 141504Z 04013KT 26/20 A3017 RMK A01 T02560196  RH  069%=      5-min Rain = 0
KWT1 141505Z 04014KT 26/20 A3017 RMK A01 T02550196  RH  070%=      5-min Rain = 0
KWT1 141506Z 03015G21KT 25/20 A3017 RMK A01 T02540195  RH  070%=      5-min Rain = 0
KWT1 141507Z 04016KT 25/20 A3018 RMK A01 T02530196  RH  070%=      5-min Rain = 0
KWT1 141508Z 03016KT 25/20 A3018 RMK A01 T02520195  RH  071%=      5-min Rain = 0
KWT1 141509Z 04015KT 25/20 A3018 RMK A01 T02540195  RH  070%=      5-min Rain = 0
KWT1 141510Z 04015KT 25/20 A3018 RMK A01 T02540195  RH  070%=      5-min Rain = 0
KWT1 141511Z 04016KT 26/20 A3018 RMK A01 T02550195  RH  070%=      5-min Rain = 0
KWT1 141512Z 03016KT 26/20 A3018 RMK A01 T02560196  RH  069%=      5-min Rain = 0
KWT1 141513Z 04014KT 26/20 A3018 RMK A01 T02570196  RH  069%=      5-min Rain = 0
KWT1 141514Z 03012KT 26/20 A3018 RMK A01 T02590196  RH  068%=      5-min Rain = 0
KWT1 141515Z 04013G18KT 26/20 A3018 RMK A01 T02610197  RH  068%=      5-min Rain = 0
KWT1 141516Z 03011KT 26/20 A3018 RMK A01 T02600197  RH  068%=      5-min Rain = 0
KWT1 141517Z 02011KT 26/20 A3018 RMK A01 T02590196  RH  068%=      5-min Rain = 0
KWT1 141518Z 03013KT 26/20 A3017 RMK A01 T02580196  RH  069%=      5-min Rain = 0
KWT1 141519Z 03013KT 26/20 A3017 RMK A01 T02590195  RH  068%=      5-min Rain = 0
KWT1 141520Z 03014KT 26/20 A3017 RMK A01 T02620196  RH  067%=      5-min Rain = 0
KWT1 141521Z 03016KT 27/20 A3017 RMK A01 T02650195  RH  066%=      5-min Rain = 0
KWT1 141522Z 04017KT 27/20 A3017 RMK A01 T02650195  RH  065%=      5-min Rain = 0
KWT1 141523Z 04016KT 26/20 A3017 RMK A01 T02640195  RH  066%=      5-min Rain = 0
KWT1 141524Z 04017KT 26/20 A3017 RMK A01 T02640195  RH  066%=      5-min Rain = 0
KWT1 141525Z 03013KT 26/20 A3017 RMK A01 T02640195  RH  066%=      5-min Rain = 0
KWT1 141526Z 03015KT 26/20 A3017 RMK A01 T02630195  RH  066%=      5-min Rain = 0
KWT1 141527Z 03014KT 26/19 A3017 RMK A01 T02620194  RH  066%=      5-min Rain = 0
KWT1 141528Z 03014KT 26/20 A3017 RMK A01 T02620195  RH  066%=      5-min Rain = 0
KWT1 141529Z 02016KT 27/20 A3017 RMK A01 T02650195  RH  065%=      5-min Rain = 0
KWT1 141530Z 02013G18KT 27/20 A3017 RMK A01 T02670195  RH  065%=      5-min Rain = 0
KWT1 141531Z 03015KT 27/19 A3017 RMK A01 T02660194  RH  064%=      5-min Rain = 0
KWT1 141532Z 03013KT 27/19 A3017 RMK A01 T02650194  RH  065%=      5-min Rain = 0
KWT1 141533Z 02012KT 27/20 A3017 RMK A01 T02650195  RH  065%=      5-min Rain = 0
KWT1 141534Z 03016KT 27/20 A3017 RMK A01 T02680195  RH  064%=      5-min Rain = 0
KWT1 141535Z 02010KT 27/20 A3017 RMK A01 T02680195  RH  064%=      5-min Rain = 0
KWT1 141536Z 04011KT 27/20 A3017 RMK A01 T02710197  RH  064%=      5-min Rain = 0
KWT1 141537Z 03014KT 28/20 A3017 RMK A01 T02760198  RH  062%=      5-min Rain = 0
KWT1 141538Z 02014G19KT 28/20 A3017 RMK A01 T02770195  RH  061%=      5-min Rain = 0
KWT1 141539Z 02012G17KT 28/20 A3017 RMK A01 T02750195  RH  062%=      5-min Rain = 0
KWT1 141540Z 01014KT 27/19 A3017 RMK A01 T02730193  RH  062%=      5-min Rain = 0
KWT1 141541Z 02011G16KT 27/19 A3017 RMK A01 T02730194  RH  062%=      5-min Rain = 0
KWT1 141542Z 03011KT 27/20 A3017 RMK A01 T02740196  RH  062%=      5-min Rain = 0
KWT1 141543Z 02014KT 28/20 A3017 RMK A01 T02770196  RH  061%=      5-min Rain = 0
KWT1 141544Z 03014KT 28/20 A3017 RMK A01 T02780195  RH  061%=      5-min Rain = 0
KWT1 141545Z 03016KT 28/20 A3017 RMK A01 T02770195  RH  061%=      5-min Rain = 0
KWT1 141546Z 03015KT 28/20 A3017 RMK A01 T02780195  RH  061%=      5-min Rain = 0
KWT1 141547Z 03016KT 28/19 A3017 RMK A01 T02770194  RH  061%=      5-min Rain = 0
KWT1 141548Z 04016KT 28/20 A3017 RMK A01 T02770195  RH  061%=      5-min Rain = 0
KWT1 141549Z 03015G20KT 28/20 A3017 RMK A01 T02770195  RH  061%=      5-min Rain = 0
KWT1 141550Z 04015KT 28/20 A3017 RMK A01 T02780196  RH  061%=      5-min Rain = 0
KWT1 141551Z 03013KT 28/20 A3017 RMK A01 T02770196  RH  061%=      5-min Rain = 0
KWT1 141552Z 03012KT 28/20 A3017 RMK A01 T02780195  RH  061%=      5-min Rain = 0
KWT1 141553Z 04012KT 28/20 A3017 RMK A01 T02770196  RH  061%=      5-min Rain = 0
KWT1 141554Z 03014G19KT 28/20 A3017 RMK A01 T02790196  RH  061%=      5-min Rain = 0
KWT1 141555Z 02015KT 28/20 A3017 RMK A01 T02810196  RH  060%=      5-min Rain = 0
KWT1 141556Z 03014KT 28/20 A3017 RMK A01 T02810195  RH  059%=      5-min Rain = 0
KWT1 141557Z 03015KT 28/20 A3017 RMK A01 T02800195  RH  060%=      5-min Rain = 0
KWT1 141558Z 03016KT 28/20 A3017 RMK A01 T02800195  RH  060%=      5-min Rain = 0
KWT1 141559Z 03015KT 28/20 A3017 RMK A01 T02790195  RH  060%=      5-min Rain = 0
KWT1 141600Z 04013KT 28/20 A3017 RMK A01 T02800196  RH  060%=      5-min Rain = 0
KWT1 141601Z 03014KT 28/20 A3017 RMK A01 T02810196  RH  060%=      5-min Rain = 0
KWT1 141602Z 04013G18KT 28/20 A3017 RMK A01 T02820197  RH  060%=      5-min Rain = 0
KWT1 141603Z 05015KT 29/20 A3017 RMK A01 T02850197  RH  059%=      5-min Rain = 0
KWT1 141604Z 03015KT 29/20 A3017 RMK A01 T02870197  RH  058%=      5-min Rain = 0
KWT1 141605Z 04016G21KT 29/20 A3017 RMK A01 T02860197  RH  058%=      5-min Rain = 0
KWT1 141606Z 04015KT 28/20 A3017 RMK A01 T02840196  RH  059%=      5-min Rain = 0
KWT1 141607Z 02016G22KT 28/20 A3017 RMK A01 T02810196  RH  060%=      5-min Rain = 0
KWT1 141608Z 03016KT 28/20 A3017 RMK A01 T02810196  RH  060%=      5-min Rain = 0
KWT1 141609Z 02013KT 28/20 A3017 RMK A01 T02820196  RH  060%=      5-min Rain = 0
KWT1 141610Z 05014KT 28/20 A3017 RMK A01 T02820197  RH  060%=      5-min Rain = 0
KWT1 141611Z 03013KT 28/20 A3017 RMK A01 T02830198  RH  060%=      5-min Rain = 0
KWT1 141612Z 02015G21KT 28/20 A3017 RMK A01 T02840197  RH  059%=      5-min Rain = 0
KWT1 141613Z 03012KT 28/20 A3017 RMK A01 T02840197  RH  059%=      5-min Rain = 0
KWT1 141614Z 03013KT 29/20 A3017 RMK A01 T02860199  RH  059%=      5-min Rain = 0
KWT1 141615Z 03013G19KT 29/20 A3017 RMK A01 T02890200  RH  059%=      5-min Rain = 0
KWT1 141616Z 03014KT 29/20 A3017 RMK A01 T02910199  RH  058%=      5-min Rain = 0
KWT1 141617Z 03015KT 29/20 A3017 RMK A01 T02890198  RH  058%=      5-min Rain = 0
KWT1 141618Z 04012KT 29/20 A3017 RMK A01 T02870198  RH  059%=      5-min Rain = 0
KWT1 141619Z 03011KT 29/20 A3017 RMK A01 T02870198  RH  058%=      5-min Rain = 0
KWT1 141620Z 03016KT 29/20 A3017 RMK A01 T02880199  RH  058%=      5-min Rain = 0
KWT1 141621Z 05015KT 29/20 A3017 RMK A01 T02880198  RH  058%=      5-min Rain = 0
KWT1 141622Z 03014KT 29/20 A3017 RMK A01 T02880199  RH  059%=      5-min Rain = 0
KWT1 141623Z 03013KT 29/20 A3017 RMK A01 T02890198  RH  058%=      5-min Rain = 0
KWT1 141624Z 03010KT 29/20 A3017 RMK A01 T02880198  RH  058%=      5-min Rain = 0
KWT1 141625Z 04011KT 29/20 A3017 RMK A01 T02910200  RH  058%=      5-min Rain = 0
KWT1 141626Z 04013KT 29/20 A3017 RMK A01 T02940200  RH  057%=      5-min Rain = 0
KWT1 141627Z 05016KT 30/20 A3017 RMK A01 T02950200  RH  056%=      5-min Rain = 0
KWT1 141628Z 04015KT 29/20 A3017 RMK A01 T02920199  RH  057%=      5-min Rain = 0
KWT1 141629Z 03014G19KT 29/20 A3017 RMK A01 T02900199  RH  058%=      5-min Rain = 0
KWT1 141630Z 02017KT 29/20 A3017 RMK A01 T02900199  RH  058%=      5-min Rain = 0
KWT1 141631Z 04015KT 29/20 A3017 RMK A01 T02890199  RH  058%=      5-min Rain = 0
KWT1 141632Z 05011KT 29/20 A3017 RMK A01 T02890198  RH  058%=      5-min Rain = 0
KWT1 141633Z 04011KT 29/20 A3017 RMK A01 T02900201  RH  058%=      5-min Rain = 0
KWT1 141634Z 06012KT 30/20 A3017 RMK A01 T02960202  RH  057%=      5-min Rain = 0
KWT1 141635Z 06012KT 30/20 A3017 RMK A01 T02970201  RH  057%=      5-min Rain = 0
KWT1 141636Z 05012KT 30/20 A3017 RMK A01 T02960201  RH  057%=      5-min Rain = 0
KWT1 141637Z 06012KT 30/20 A3017 RMK A01 T02960202  RH  057%=      5-min Rain = 0
KWT1 141638Z 05011KT 30/20 A3017 RMK A01 T02970201  RH  056%=      5-min Rain = 0
KWT1 141639Z 07012KT 30/20 A3017 RMK A01 T02950200  RH  057%=      5-min Rain = 0
KWT1 141640Z 06012KT 29/20 A3017 RMK A01 T02940201  RH  057%=      5-min Rain = 0
KWT1 141641Z 05012KT 30/20 A3017 RMK A01 T02950200  RH  057%=      5-min Rain = 0
KWT1 141642Z 05013KT 29/20 A3017 RMK A01 T02940201  RH  057%=      5-min Rain = 0
KWT1 141643Z 05012KT 29/20 A3016 RMK A01 T02940200  RH  057%=      5-min Rain = 0
KWT1 141644Z 02012KT 30/20 A3017 RMK A01 T02980202  RH  056%=      5-min Rain = 0
KWT1 141645Z 03014G19KT 30/20 A3017 RMK A01 T03010201  RH  055%=      5-min Rain = 0
KWT1 141646Z 03015KT 30/20 A3017 RMK A01 T02990200  RH  055%=      5-min Rain = 0
KWT1 141647Z 03012KT 30/20 A3017 RMK A01 T02970201  RH  056%=      5-min Rain = 0
KWT1 141648Z 04012KT 30/20 A3016 RMK A01 T02960201  RH  057%=      5-min Rain = 0
KWT1 141649Z 03012G17KT 30/20 A3017 RMK A01 T03000202  RH  056%=      5-min Rain = 0
KWT1 141650Z 03013KT 30/20 A3017 RMK A01 T03010201  RH  055%=      5-min Rain = 0
KWT1 141651Z 03013KT 30/20 A3017 RMK A01 T03010201  RH  055%=      5-min Rain = 0
KWT1 141652Z 03014KT 30/20 A3017 RMK A01 T03000200  RH  055%=      5-min Rain = 0
KWT1 141653Z 05012KT 30/20 A3017 RMK A01 T02970200  RH  056%=      5-min Rain = 0
KWT1 141654Z 05010KT 30/20 A3017 RMK A01 T02970199  RH  056%=      5-min Rain = 0
KWT1 141655Z 04009KT 30/20 A3017 RMK A01 T02980200  RH  056%=      5-min Rain = 0
KWT1 141656Z 04010KT 30/20 A3017 RMK A01 T02980201  RH  056%=      5-min Rain = 0
KWT1 141657Z 05010KT 30/20 A3017 RMK A01 T03020202  RH  055%=      5-min Rain = 0
KWT1 141658Z 04010KT 30/20 A3016 RMK A01 T03040203  RH  055%=      5-min Rain = 0
KWT1 141659Z 04008KT 31/20 A3016 RMK A01 T03070204  RH  054%=      5-min Rain = 0
KWT1 141700Z 02010KT 31/20 A3016 RMK A01 T03120204  RH  053%=      5-min Rain = 0
KWT1 141701Z 04010KT 31/20 A3016 RMK A01 T03110202  RH  052%=      5-min Rain = 0
KWT1 141702Z 04009KT 31/20 A3016 RMK A01 T03090203  RH  053%=      5-min Rain = 0
KWT1 141703Z 05011KT 31/20 A3016 RMK A01 T03090202  RH  053%=      5-min Rain = 0
KWT1 141704Z 06009KT 31/20 A3016 RMK A01 T03080203  RH  054%=      5-min Rain = 0
KWT1 141705Z 06008KT 31/20 A3016 RMK A01 T03080203  RH  054%=      5-min Rain = 0
KWT1 141706Z 05007KT 31/20 A3016 RMK A01 T03100204  RH  053%=      5-min Rain = 0
KWT1 141707Z 05008KT 31/20 A3016 RMK A01 T03140203  RH  052%=      5-min Rain = 0
KWT1 141708Z 05009KT 32/21 A3016 RMK A01 T03160205  RH  052%=      5-min Rain = 0
KWT1 141709Z 06011KT 32/20 A3016 RMK A01 T03180204  RH  051%=      5-min Rain = 0
KWT1 141710Z 03010KT 32/20 A3016 RMK A01 T03180204  RH  051%=      5-min Rain = 0
KWT1 141711Z 02010KT 32/20 A3016 RMK A01 T03170202  RH  051%=      5-min Rain = 0
KWT1 141712Z 05011KT 32/20 A3016 RMK A01 T03180203  RH  051%=      5-min Rain = 0
KWT1 141713Z 04010KT 32/20 A3016 RMK A01 T03170203  RH  051%=      5-min Rain = 0
KWT1 141714Z 05011KT 31/20 A3016 RMK A01 T03140203  RH  052%=      5-min Rain = 0
KWT1 141715Z 04012KT 31/20 A3016 RMK A01 T03130202  RH  052%=      5-min Rain = 0
KWT1 141716Z 03014KT 31/20 A3016 RMK A01 T03110199  RH  051%=      5-min Rain = 0
KWT1 141717Z 04012KT 31/20 A3016 RMK A01 T03090197  RH  051%=      5-min Rain = 0
KWT1 141718Z 05014KT 31/20 A3016 RMK A01 T03070198  RH  052%=      5-min Rain = 0
KWT1 141719Z 03012G17KT 31/20 A3016 RMK A01 T03080200  RH  052%=      5-min Rain = 0
KWT1 141720Z 02013KT 31/20 A3016 RMK A01 T03100199  RH  052%=      5-min Rain = 0
KWT1 141721Z 02013KT 31/20 A3016 RMK A01 T03110199  RH  052%=      5-min Rain = 0
KWT1 141722Z 02009KT 31/20 A3015 RMK A01 T03090199  RH  052%=      5-min Rain = 0
KWT1 141723Z 02012KT 31/20 A3015 RMK A01 T03100201  RH  052%=      5-min Rain = 0
KWT1 141724Z 05011KT 31/20 A3015 RMK A01 T03140204  RH  052%=      5-min Rain = 0
KWT1 141725Z 04012KT 32/20 A3015 RMK A01 T03180203  RH  050%=      5-min Rain = 0
KWT1 141726Z 06013KT 32/20 A3015 RMK A01 T03190202  RH  050%=      5-min Rain = 0
KWT1 141727Z 05011KT 32/20 A3015 RMK A01 T03170199  RH  050%=      5-min Rain = 0
KWT1 141728Z 06010KT 31/20 A3015 RMK A01 T03120199  RH  051%=      5-min Rain = 0
KWT1 141729Z 06012G18KT 31/20 A3015 RMK A01 T03120198  RH  051%=      5-min Rain = 0
KWT1 141730Z 04011KT 31/20 A3015 RMK A01 T03140198  RH  050%=      5-min Rain = 0
KWT1 141731Z 03012KT 32/20 A3015 RMK A01 T03190199  RH  049%=      5-min Rain = 0
KWT1 141732Z 04010KT 32/20 A3014 RMK A01 T03210198  RH  048%=      5-min Rain = 0
KWT1 141733Z 06010KT 32/20 A3014 RMK A01 T03190200  RH  049%=      5-min Rain = 0
KWT1 141734Z 06010KT 32/20 A3014 RMK A01 T03180201  RH  050%=      5-min Rain = 0
KWT1 141735Z 04009KT 32/20 A3014 RMK A01 T03170200  RH  050%=      5-min Rain = 0
KWT1 141736Z 03008KT 32/20 A3014 RMK A01 T03160199  RH  050%=      5-min Rain = 0
KWT1 141737Z 02007KT 32/20 A3014 RMK A01 T03150199  RH  050%=      5-min Rain = 0
KWT1 141738Z 04010KT 31/20 A3014 RMK A01 T03140200  RH  051%=      5-min Rain = 0
KWT1 141739Z 06010KT 31/20 A3014 RMK A01 T03140199  RH  050%=      5-min Rain = 0
KWT1 141740Z 06010KT 32/20 A3014 RMK A01 T03150199  RH  050%=      5-min Rain = 0
KWT1 141741Z 06013KT 32/20 A3014 RMK A01 T03170199  RH  050%=      5-min Rain = 0
KWT1 141742Z 07012KT 32/20 A3014 RMK A01 T03160199  RH  050%=      5-min Rain = 0
KWT1 141743Z 06008KT 32/20 A3014 RMK A01 T03160200  RH  050%=      5-min Rain = 0
KWT1 141744Z 06007KT 32/20 A3014 RMK A01 T03200200  RH  049%=      5-min Rain = 0
KWT1 141745Z 06008G13KT 32/20 A3014 RMK A01 T03230201  RH  049%=      5-min Rain = 0
KWT1 141746Z 04009G14KT 33/20 A3014 RMK A01 T03260201  RH  048%=      5-min Rain = 0
KWT1 141747Z 06011KT 33/20 A3014 RMK A01 T03260201  RH  048%=      5-min Rain = 0
KWT1 141748Z 05011KT 33/20 A3014 RMK A01 T03250199  RH  047%=      5-min Rain = 0
KWT1 141749Z 03008KT 33/20 A3014 RMK A01 T03260197  RH  046%=      5-min Rain = 0
KWT1 141750Z 03010KT 33/20 A3014 RMK A01 T03270197  RH  046%=      5-min Rain = 0
KWT1 141751Z 06007KT 33/20 A3014 RMK A01 T03250199  RH  047%=      5-min Rain = 0
KWT1 141752Z 07008KT 33/20 A3014 RMK A01 T03250201  RH  048%=      5-min Rain = 0
KWT1 141753Z 06006KT 33/20 A3014 RMK A01 T03280200  RH  047%=      5-min Rain = 0
KWT1 141754Z 05007G13KT 33/20 A3014 RMK A01 T03280201  RH  047%=      5-min Rain = 0
KWT1 141755Z 04012KT 33/20 A3014 RMK A01 T03280198  RH  046%=      5-min Rain = 0
KWT1 141756Z 02008KT 33/20 A3014 RMK A01 T03250197  RH  047%=      5-min Rain = 0
KWT1 141757Z 06010KT 32/20 A3014 RMK A01 T03240198  RH  047%=      5-min Rain = 0
KWT1 141758Z 06011KT 32/20 A3014 RMK A01 T03240199  RH  048%=      5-min Rain = 0
KWT1 141759Z 04009KT 33/20 A3014 RMK A01 T03270199  RH  047%=      5-min Rain = 0
KWT1 141800Z 04008KT 33/20 A3014 RMK A01 T03300198  RH  046%=      5-min Rain = 0
KWT1 141801Z 04008KT 33/20 A3014 RMK A01 T03300198  RH  046%=      5-min Rain = 0
KWT1 141802Z 04008KT 33/20 A3014 RMK A01 T03320198  RH  045%=      5-min Rain = 0
KWT1 141803Z 04007KT 33/20 A3014 RMK A01 T03310199  RH  046%=      5-min Rain = 0
KWT1 141804Z 02011G17KT 33/20 A3014 RMK A01 T03280198  RH  046%=      5-min Rain = 0
KWT1 141805Z 05011KT 33/20 A3014 RMK A01 T03270195  RH  046%=      5-min Rain = 0
KWT1 141806Z 04013KT 33/20 A3014 RMK A01 T03310197  RH  045%=      5-min Rain = 0
KWT1 141807Z 05011KT 33/20 A3014 RMK A01 T03310196  RH  045%=      5-min Rain = 0
KWT1 141808Z 05012KT 33/20 A3014 RMK A01 T03280195  RH  046%=      5-min Rain = 0
KWT1 141809Z 04010KT 33/20 A3014 RMK A01 T03250195  RH  046%=      5-min Rain = 0
KWT1 141810Z 04010KT 32/20 A3013 RMK A01 T03220195  RH  047%=      5-min Rain = 0
KWT1 141811Z 06010KT 32/20 A3013 RMK A01 T03220196  RH  047%=      5-min Rain = 0
KWT1 141812Z 06012KT 32/20 A3013 RMK A01 T03230196  RH  047%=      5-min Rain = 0
KWT1 141813Z 08010KT 32/20 A3013 RMK A01 T03230195  RH  047%=      5-min Rain = 0
KWT1 141814Z 08010KT 32/20 A3013 RMK A01 T03240196  RH  047%=      5-min Rain = 0
KWT1 141815Z 04009KT 33/20 A3013 RMK A01 T03260196  RH  046%=      5-min Rain = 0
KWT1 141816Z 03009KT 33/19 A3013 RMK A01 T03260194  RH  046%=      5-min Rain = 0
KWT1 141817Z 03012KT 33/19 A3013 RMK A01 T03250193  RH  046%=      5-min Rain = 0
KWT1 141818Z 02009KT 33/19 A3013 RMK A01 T03250193  RH  046%=      5-min Rain = 0
KWT1 141819Z 03010KT 33/19 A3013 RMK A01 T03250194  RH  046%=      5-min Rain = 0
KWT1 141820Z 03007KT 33/20 A3013 RMK A01 T03250196  RH  047%=      5-min Rain = 0
KWT1 141821Z 04010KT 33/20 A3013 RMK A01 T03310198  RH  046%=      5-min Rain = 0
KWT1 141822Z 05013KT 33/20 A3013 RMK A01 T03330195  RH  044%=      5-min Rain = 0
KWT1 141823Z 07012KT 33/19 A3013 RMK A01 T03320194  RH  044%=      5-min Rain = 0
KWT1 141824Z 05009G14KT 33/20 A3013 RMK A01 T03320195  RH  045%=      5-min Rain = 0
KWT1 141825Z 06010KT 33/19 A3013 RMK A01 T03310193  RH  044%=      5-min Rain = 0
KWT1 141826Z 06009KT 33/19 A3013 RMK A01 T03300188  RH  043%=      5-min Rain = 0
KWT1 141827Z 05010G16KT 33/19 A3013 RMK A01 T03300192  RH  044%=      5-min Rain = 0
KWT1 141828Z 05013KT 33/19 A3013 RMK A01 T03340193  RH  044%=      5-min Rain = 0
KWT1 141829Z 03011KT 33/19 A3013 RMK A01 T03330191  RH  043%=      5-min Rain = 0
KWT1 141830Z 04012KT 33/19 A3013 RMK A01 T03300192  RH  044%=      5-min Rain = 0
KWT1 141831Z 03008KT 33/19 A3013 RMK A01 T03320192  RH  044%=      5-min Rain = 0
KWT1 141832Z 04006KT 33/19 A3013 RMK A01 T03330192  RH  044%=      5-min Rain = 0
KWT1 141833Z 06008KT 33/19 A3013 RMK A01 T03320192  RH  044%=      5-min Rain = 0
KWT1 141834Z 07010KT 33/19 A3012 RMK A01 T03310193  RH  044%=      5-min Rain = 0
KWT1 141835Z 06009KT 33/19 A3012 RMK A01 T03300193  RH  044%=      5-min Rain = 0
KWT1 141836Z 06012G17KT 33/19 A3012 RMK A01 T03300193  RH  045%=      5-min Rain = 0
KWT1 141837Z 05011KT 33/19 A3012 RMK A01 T03290192  RH  044%=      5-min Rain = 0
KWT1 141838Z 06009KT 33/19 A3012 RMK A01 T03290192  RH  044%=      5-min Rain = 0
KWT1 141839Z 05008KT 33/19 A3012 RMK A01 T03270192  RH  045%=      5-min Rain = 0
KWT1 141840Z 05010KT 33/19 A3012 RMK A01 T03250192  RH  046%=      5-min Rain = 0
KWT1 141841Z 03011KT 33/19 A3012 RMK A01 T03320192  RH  043%=      5-min Rain = 0
KWT1 141842Z 04010KT 34/19 A3012 RMK A01 T03370189  RH  042%=      5-min Rain = 0
KWT1 141843Z 05009KT 34/19 A3012 RMK A01 T03350186  RH  041%=      5-min Rain = 0
KWT1 141844Z 03007KT 33/19 A3012 RMK A01 T03300187  RH  043%=      5-min Rain = 0
KWT1 141845Z 04007KT 33/19 A3012 RMK A01 T03290189  RH  044%=      5-min Rain = 0
KWT1 141846Z 05007KT 33/19 A3012 RMK A01 T03330192  RH  043%=      5-min Rain = 0
KWT1 141847Z 08007KT 34/19 A3012 RMK A01 T03360194  RH  043%=      5-min Rain = 0
KWT1 141848Z 07010KT 34/19 A3012 RMK A01 T03360194  RH  043%=      5-min Rain = 0
KWT1 141849Z 07012KT 34/19 A3012 RMK A01 T03360193  RH  043%=      5-min Rain = 0
KWT1 141850Z 07009KT 34/19 A3012 RMK A01 T03350192  RH  043%=      5-min Rain = 0
KWT1 141851Z 08010KT 33/19 A3012 RMK A01 T03340193  RH  043%=      5-min Rain = 0
KWT1 141852Z 07010KT 33/20 A3012 RMK A01 T03340195  RH  044%=      5-min Rain = 0
KWT1 141853Z 08009KT 33/20 A3012 RMK A01 T03340197  RH  044%=      5-min Rain = 0
KWT1 141854Z 10010KT 34/20 A3012 RMK A01 T03370195  RH  043%=      5-min Rain = 0
KWT1 141855Z 11007KT 33/19 A3011 RMK A01 T03310193  RH  044%=      5-min Rain = 0
KWT1 141856Z 09006KT 33/20 A3011 RMK A01 T03310195  RH  045%=      5-min Rain = 0
KWT1 141857Z 05009KT 34/20 A3011 RMK A01 T03350196  RH  044%=      5-min Rain = 0
KWT1 141858Z 03012KT 34/19 A3012 RMK A01 T03420190  RH  041%=      5-min Rain = 0
KWT1 141859Z 04012KT 34/18 A3012 RMK A01 T03430183  RH  039%=      5-min Rain = 0
KWT1 141900Z 03010KT 34/18 A3012 RMK A01 T03370180  RH  039%=      5-min Rain = 0
KWT1 141901Z 02008KT 34/18 A3012 RMK A01 T03350181  RH  040%=      5-min Rain = 0
KWT1 141902Z 01007KT 33/18 A3011 RMK A01 T03340181  RH  040%=      5-min Rain = 0
KWT1 141903Z 04009KT 34/19 A3011 RMK A01 T03380185  RH  040%=      5-min Rain = 0
KWT1 141904Z 04012KT 34/19 A3011 RMK A01 T03440185  RH  039%=      5-min Rain = 0
KWT1 141905Z 05011KT 35/19 A3011 RMK A01 T03470186  RH  039%=      5-min Rain = 0
KWT1 141906Z 05009KT 35/19 A3011 RMK A01 T03460186  RH  039%=      5-min Rain = 0
KWT1 141907Z 03005KT 35/19 A3011 RMK A01 T03450188  RH  040%=      5-min Rain = 0
KWT1 141908Z 04006KT 35/19 A3011 RMK A01 T03470188  RH  039%=      5-min Rain = 0
KWT1 141909Z 05007KT 35/19 A3011 RMK A01 T03500192  RH  040%=      5-min Rain = 0
KWT1 141910Z 06006KT 35/19 A3011 RMK A01 T03470191  RH  040%=      5-min Rain = 0
KWT1 141911Z 07005KT 35/19 A3011 RMK A01 T03460194  RH  041%=      5-min Rain = 0
KWT1 141912Z 06013G18KT 35/19 A3011 RMK A01 T03460190  RH  040%=      5-min Rain = 0
KWT1 141913Z 06010KT 35/19 A3011 RMK A01 T03480190  RH  040%=      5-min Rain = 0
KWT1 141914Z 05011KT 34/18 A3011 RMK A01 T03430183  RH  039%=      5-min Rain = 0
KWT1 141915Z 05009KT 34/18 A3011 RMK A01 T03400184  RH  040%=      5-min Rain = 0
KWT1 141916Z 04006KT 34/19 A3011 RMK A01 T03390186  RH  040%=      5-min Rain = 0
KWT1 141917Z 04011KT 34/19 A3011 RMK A01 T03410188  RH  040%=      5-min Rain = 0
KWT1 141918Z 04013KT 34/19 A3011 RMK A01 T03430187  RH  040%=      5-min Rain = 0
KWT1 141919Z 03010KT 34/19 A301 RMK A01 T03410187  RH  040%=      5-min Rain = 0
KWT1 141920Z 03008KT 34/19 A301 RMK A01 T03410187  RH  040%=      5-min Rain = 0
KWT1 141921Z 04012KT 34/19 A301 RMK A01 T03430188  RH  040%=      5-min Rain = 0
KWT1 141922Z 04012G17KT 35/19 A301 RMK A01 T03450188  RH  039%=      5-min Rain = 0
KWT1 141923Z 04010KT 34/19 A301 RMK A01 T03420187  RH  040%=      5-min Rain = 0
KWT1 141924Z 05008KT 34/19 A301 RMK A01 T03410187  RH  040%=      5-min Rain = 0
KWT1 141925Z 06010KT 34/19 A301 RMK A01 T03410188  RH  041%=      5-min Rain = 0
KWT1 141926Z 07010KT 34/19 A301 RMK A01 T03400187  RH  040%=      5-min Rain = 0
KWT1 141927Z 06008KT 34/19 A301 RMK A01 T03380187  RH  041%=      5-min Rain = 0
KWT1 141928Z 09005KT 33/19 A301 RMK A01 T03340186  RH  042%=      5-min Rain = 0
KWT1 141929Z 10008KT 33/19 A301 RMK A01 T03320186  RH  042%=      5-min Rain = 0
KWT1 141930Z 06013G19KT 34/19 A301 RMK A01 T03380188  RH  041%=      5-min Rain = 0
KWT1 141931Z 04015KT 35/19 A301 RMK A01 T03450185  RH  039%=      5-min Rain = 0
KWT1 141932Z 05014KT 34/18 A301 RMK A01 T03440183  RH  038%=      5-min Rain = 0
KWT1 141933Z 05011KT 34/18 A301 RMK A01 T03410180  RH  038%=      5-min Rain = 0
KWT1 141934Z 04007G12KT 34/18 A301 RMK A01 T03400178  RH  038%=      5-min Rain = 0
KWT1 141935Z 06011KT 34/18 A301 RMK A01 T03410182  RH  039%=      5-min Rain = 0
KWT1 141936Z 07006KT 34/18 A301 RMK A01 T03400184  RH  040%=      5-min Rain = 0
KWT1 141937Z 09007KT 34/18 A301 RMK A01 T03380183  RH  040%=      5-min Rain = 0
KWT1 141938Z 07007KT 34/19 A301 RMK A01 T03430187  RH  040%=      5-min Rain = 0
KWT1 141939Z 07007G13KT 35/19 A301 RMK A01 T03450186  RH  039%=      5-min Rain = 0
KWT1 141940Z 09010KT 35/19 A301 RMK A01 T03450185  RH  039%=      5-min Rain = 0
KWT1 141941Z 07010KT 34/18 A3009 RMK A01 T03440182  RH  038%=      5-min Rain = 0
KWT1 141942Z 06011KT 35/19 A3009 RMK A01 T03470186  RH  039%=      5-min Rain = 0
KWT1 141943Z 04010KT 35/18 A3009 RMK A01 T03500183  RH  037%=      5-min Rain = 0
KWT1 141944Z 06009KT 35/18 A3009 RMK A01 T03450183  RH  038%=      5-min Rain = 0
KWT1 141945Z 08013KT 35/18 A3009 RMK A01 T03480182  RH  038%=      5-min Rain = 0
KWT1 141946Z 09011KT 35/18 A3009 RMK A01 T03460180  RH  037%=      5-min Rain = 0
KWT1 141947Z 07008KT 34/18 A3009 RMK A01 T03420180  RH  038%=      5-min Rain = 0
KWT1 141948Z 07009KT 35/18 A3009 RMK A01 T03450179  RH  038%=      5-min Rain = 0
KWT1 141949Z 08014KT 35/18 A3009 RMK A01 T03460181  RH  038%=      5-min Rain = 0
KWT1 141950Z 08013KT 35/18 A3009 RMK A01 T03450179  RH  037%=      5-min Rain = 0
KWT1 141951Z 10011KT 34/18 A3009 RMK A01 T03430175  RH  037%=      5-min Rain = 0
KWT1 141952Z 09008KT 34/18 A3009 RMK A01 T03440177  RH  037%=      5-min Rain = 0
KWT1 141953Z 07011KT 35/18 A3009 RMK A01 T03480183  RH  038%=      5-min Rain = 0
KWT1 141954Z 07012KT 35/19 A3009 RMK A01 T03500185  RH  038%=      5-min Rain = 0
KWT1 141955Z 08014KT 35/19 A3009 RMK A01 T03460185  RH  039%=      5-min Rain = 0
KWT1 141956Z 08012KT 34/19 A3009 RMK A01 T03440185  RH  039%=      5-min Rain = 0
KWT1 141957Z 09010KT 34/19 A3009 RMK A01 T03430185  RH  039%=      5-min Rain = 0
KWT1 141958Z 07008KT 34/19 A3009 RMK A01 T03430185  RH  039%=      5-min Rain = 0
KWT1 141959Z 04007KT 34/18 A3008 RMK A01 T03430184  RH  039%=      5-min Rain = 0
KWT1 142000Z 06006KT 34/18 A3008 RMK A01 T03430184  RH  039%=      5-min Rain = 0
KWT1 142001Z 05011KT 34/18 A3008 RMK A01 T03420183  RH  039%=      5-min Rain = 0
KWT1 142002Z 06013KT 34/18 A3008 RMK A01 T03420180  RH  038%=      5-min Rain = 0
KWT1 142003Z 07012KT 34/18 A3008 RMK A01 T03420183  RH  039%=      5-min Rain = 0
KWT1 142004Z 07013KT 35/19 A3008 RMK A01 T03460186  RH  039%=      5-min Rain = 0
KWT1 142005Z 07010KT 35/19 A3008 RMK A01 T03450185  RH  039%=      5-min Rain = 0
KWT1 142006Z 09011KT 34/19 A3008 RMK A01 T03430185  RH  039%=      5-min Rain = 0
KWT1 142007Z 09011KT 34/19 A3008 RMK A01 T03420185  RH  039%=      5-min Rain = 0
KWT1 142008Z 07008KT 34/19 A3008 RMK A01 T03410185  RH  040%=      5-min Rain = 0
KWT1 142009Z 06010G15KT 34/18 A3008 RMK A01 T03390184  RH  040%=      5-min Rain = 0
KWT1 142010Z 09013KT 34/18 A3008 RMK A01 T03410184  RH  040%=      5-min Rain = 0
KWT1 142011Z 07011KT 35/19 A3008 RMK A01 T03450186  RH  039%=      5-min Rain = 0
KWT1 142012Z 07011KT 35/18 A3007 RMK A01 T03470184  RH  038%=      5-min Rain = 0
KWT1 142013Z 07014KT 35/18 A3007 RMK A01 T03470183  RH  038%=      5-min Rain = 0
KWT1 142014Z 08013KT 35/18 A3007 RMK A01 T03530181  RH  036%=      5-min Rain = 0
KWT1 142015Z 07014KT 35/18 A3007 RMK A01 T03520181  RH  037%=      5-min Rain = 0
KWT1 142016Z 08016KT 35/18 A3007 RMK A01 T03520181  RH  037%=      5-min Rain = 0
KWT1 142017Z 06010KT 35/18 A3007 RMK A01 T03510182  RH  037%=      5-min Rain = 0
KWT1 142018Z 07010KT 35/18 A3007 RMK A01 T03510182  RH  037%=      5-min Rain = 0
KWT1 142019Z 08013KT 35/18 A3007 RMK A01 T03530182  RH  037%=      5-min Rain = 0
KWT1 142020Z 07013KT 35/18 A3007 RMK A01 T03510179  RH  036%=      5-min Rain = 0
KWT1 142021Z 08011KT 35/18 A3007 RMK A01 T03490182  RH  037%=      5-min Rain = 0
KWT1 142022Z 09009KT 35/18 A3007 RMK A01 T03480177  RH  036%=      5-min Rain = 0
KWT1 142023Z 11009KT 35/18 A3007 RMK A01 T03460178  RH  037%=      5-min Rain = 0
KWT1 142024Z 09009KT 35/18 A3006 RMK A01 T03460179  RH  037%=      5-min Rain = 0
KWT1 142025Z 08012KT 35/18 A3006 RMK A01 T03460179  RH  037%=      5-min Rain = 0
KWT1 142026Z 07011KT 35/18 A3007 RMK A01 T03450179  RH  037%=      5-min Rain = 0
KWT1 142027Z 06009KT 35/18 A3007 RMK A01 T03490179  RH  037%=      5-min Rain = 0
KWT1 142028Z 06008KT 35/18 A3007 RMK A01 T03500179  RH  037%=      5-min Rain = 0
KWT1 142029Z 06010KT 35/18 A3007 RMK A01 T03490178  RH  036%=      5-min Rain = 0
KWT1 142030Z 06010KT 35/18 A3007 RMK A01 T03470177  RH  037%=      5-min Rain = 0
KWT1 142031Z 07010G15KT 35/18 A3007 RMK A01 T03460178  RH  037%=      5-min Rain = 0
KWT1 142032Z 07012KT 35/18 A3007 RMK A01 T03480182  RH  038%=      5-min Rain = 0
KWT1 142033Z 09012KT 35/18 A3007 RMK A01 T03490183  RH  038%=      5-min Rain = 0
KWT1 142034Z 06011KT 35/19 A3007 RMK A01 T03500185  RH  038%=      5-min Rain = 0
KWT1 142035Z 04013KT 35/18 A3007 RMK A01 T03520184  RH  037%=      5-min Rain = 0
KWT1 142036Z 03010KT 35/18 A3007 RMK A01 T03500183  RH  037%=      5-min Rain = 0
KWT1 142037Z 06007KT 35/18 A3007 RMK A01 T03490183  RH  038%=      5-min Rain = 0
KWT1 142038Z 09008KT 35/18 A3006 RMK A01 T03480184  RH  038%=      5-min Rain = 0
KWT1 142039Z 08008KT 35/18 A3006 RMK A01 T03490184  RH  038%=      5-min Rain = 0
KWT1 142040Z 08008KT 35/18 A3006 RMK A01 T03500184  RH  038%=      5-min Rain = 0
KWT1 142041Z 08010G16KT 35/18 A3006 RMK A01 T03500184  RH  038%=      5-min Rain = 0
KWT1 142042Z 09013KT 35/18 A3006 RMK A01 T03480181  RH  037%=      5-min Rain = 0
KWT1 142043Z 09012G17KT 35/18 A3006 RMK A01 T03470178  RH  037%=      5-min Rain = 0
KWT1 142044Z 09015KT 35/17 A3006 RMK A01 T03480171  RH  035%=      5-min Rain = 0
KWT1 142045Z 10014KT 35/17 A3006 RMK A01 T03490173  RH  035%=      5-min Rain = 0
KWT1 142046Z 08013KT 35/18 A3006 RMK A01 T03500175  RH  036%=      5-min Rain = 0
KWT1 142047Z 07015KT 35/18 A3006 RMK A01 T03500178  RH  036%=      5-min Rain = 0
KWT1 142048Z 07014KT 35/18 A3006 RMK A01 T03520178  RH  036%=      5-min Rain = 0
KWT1 142049Z 06012KT 35/18 A3006 RMK A01 T03500179  RH  037%=      5-min Rain = 0
KWT1 142050Z 05010KT 35/18 A3006 RMK A01 T03500179  RH  036%=      5-min Rain = 0
KWT1 142051Z 05011KT 35/18 A3006 RMK A01 T03510180  RH  036%=      5-min Rain = 0
KWT1 142052Z 06011KT 35/18 A3006 RMK A01 T03530181  RH  036%=      5-min Rain = 0
KWT1 142053Z 06010KT 35/18 A3006 RMK A01 T03540181  RH  036%=      5-min Rain = 0
KWT1 142054Z 05008KT 36/18 A3006 RMK A01 T03570179  RH  035%=      5-min Rain = 0
KWT1 142055Z 07006KT 36/18 A3005 RMK A01 T03580180  RH  035%=      5-min Rain = 0
KWT1 142056Z 07006KT 36/18 A3005 RMK A01 T03570181  RH  036%=      5-min Rain = 0
KWT1 142057Z 05008KT 36/18 A3005 RMK A01 T03550181  RH  036%=      5-min Rain = 0
KWT1 142058Z 06010KT 36/18 A3005 RMK A01 T03550179  RH  035%=      5-min Rain = 0
KWT1 142059Z 05012KT 36/18 A3005 RMK A01 T03580177  RH  034%=      5-min Rain = 0
KWT1 142100Z 04012KT 36/18 A3005 RMK A01 T03560175  RH  034%=      5-min Rain = 0
KWT1 142101Z 04012KT 35/17 A3005 RMK A01 T03520174  RH  035%=      5-min Rain = 0
KWT1 142102Z 04012KT 35/18 A3005 RMK A01 T03510177  RH  036%=      5-min Rain = 0
KWT1 142103Z 05010KT 35/18 A3005 RMK A01 T03510179  RH  036%=      5-min Rain = 0
KWT1 142104Z 06010KT 35/18 A3005 RMK A01 T03520182  RH  037%=      5-min Rain = 0
KWT1 142105Z 07010KT 35/18 A3005 RMK A01 T03530183  RH  037%=      5-min Rain = 0
KWT1 142106Z 08011KT 35/18 A3005 RMK A01 T03530183  RH  037%=      5-min Rain = 0
KWT1 142107Z 07012KT 35/18 A3005 RMK A01 T03530181  RH  036%=      5-min Rain = 0
KWT1 142108Z 09014KT 35/18 A3005 RMK A01 T03500179  RH  037%=      5-min Rain = 0
KWT1 142109Z 08014KT 35/18 A3005 RMK A01 T03490181  RH  037%=      5-min Rain = 0
KWT1 142110Z 09014KT 35/18 A3005 RMK A01 T03490180  RH  037%=      5-min Rain = 0
KWT1 142111Z 09014KT 35/18 A3005 RMK A01 T03470179  RH  037%=      5-min Rain = 0
KWT1 142112Z 08012KT 35/18 A3005 RMK A01 T03470181  RH  038%=      5-min Rain = 0
KWT1 142113Z 07011KT 35/18 A3005 RMK A01 T03480181  RH  037%=      5-min Rain = 0
KWT1 142114Z 06011KT 35/18 A3005 RMK A01 T03490182  RH  037%=      5-min Rain = 0
KWT1 142115Z 06013KT 35/18 A3005 RMK A01 T03480181  RH  037%=      5-min Rain = 0
KWT1 142116Z 06012G17KT 35/18 A3005 RMK A01 T03480180  RH  037%=      5-min Rain = 0
KWT1 142117Z 07011KT 35/18 A3005 RMK A01 T03490179  RH  037%=      5-min Rain = 0
KWT1 142118Z 06012KT 35/18 A3005 RMK A01 T03500177  RH  036%=      5-min Rain = 0
KWT1 142119Z 07011KT 35/18 A3005 RMK A01 T03500177  RH  036%=      5-min Rain = 0
KWT1 142120Z 07009KT 35/18 A3004 RMK A01 T03500178  RH  036%=      5-min Rain = 0
KWT1 142121Z 07012KT 35/18 A3005 RMK A01 T03520180  RH  036%=      5-min Rain = 0
KWT1 142122Z 08008KT 35/18 A3005 RMK A01 T03520177  RH  035%=      5-min Rain = 0
KWT1 142123Z 10007G12KT 35/18 A3004 RMK A01 T03500176  RH  036%=      5-min Rain = 0
KWT1 142124Z 10011KT 35/18 A3004 RMK A01 T03540180  RH  036%=      5-min Rain = 0
KWT1 142125Z 08009KT 35/18 A3004 RMK A01 T03530182  RH  037%=      5-min Rain = 0
KWT1 142126Z 06009KT 35/18 A3004 RMK A01 T03500183  RH  037%=      5-min Rain = 0
KWT1 142127Z 08013KT 35/18 A3004 RMK A01 T03500184  RH  038%=      5-min Rain = 0
KWT1 142128Z 07013KT 35/18 A3004 RMK A01 T03510183  RH  037%=      5-min Rain = 0
KWT1 142129Z 08013KT 35/18 A3004 RMK A01 T03500181  RH  037%=      5-min Rain = 0
KWT1 142130Z 08012KT 35/18 A3004 RMK A01 T03490178  RH  037%=      5-min Rain = 0
KWT1 142131Z 08008KT 35/18 A3004 RMK A01 T03470178  RH  037%=      5-min Rain = 0
KWT1 142132Z 07005KT 35/18 A3004 RMK A01 T03480176  RH  036%=      5-min Rain = 0
KWT1 142133Z 06009KT 35/18 A3004 RMK A01 T03500178  RH  036%=      5-min Rain = 0
KWT1 142134Z 05012KT 35/18 A3004 RMK A01 T03520176  RH  035%=      5-min Rain = 0
KWT1 142135Z 06009KT 35/17 A3004 RMK A01 T03530174  RH  035%=      5-min Rain = 0
KWT1 142136Z 06013KT 36/18 A3004 RMK A01 T03550176  RH  035%=      5-min Rain = 0
KWT1 142137Z 07009KT 36/17 A3004 RMK A01 T03570174  RH  034%=      5-min Rain = 0
KWT1 142138Z 08005KT 35/18 A3004 RMK A01 T03530175  RH  035%=      5-min Rain = 0
KWT1 142139Z 06005KT 36/18 A3004 RMK A01 T03570176  RH  035%=      5-min Rain = 0
KWT1 142140Z 05011KT 36/18 A3004 RMK A01 T03600176  RH  034%=      5-min Rain = 0
KWT1 142141Z 04011KT 36/17 A3004 RMK A01 T03580174  RH  034%=      5-min Rain = 0
KWT1 142142Z 03012G18KT 35/17 A3004 RMK A01 T03540173  RH  034%=      5-min Rain = 0
KWT1 142143Z 06013KT 35/18 A3004 RMK A01 T03530175  RH  035%=      5-min Rain = 0
KWT1 142144Z 06014KT 35/18 A3004 RMK A01 T03530177  RH  035%=      5-min Rain = 0
KWT1 142145Z 06012KT 35/18 A3004 RMK A01 T03510178  RH  036%=      5-min Rain = 0
KWT1 142146Z 05013KT 35/18 A3005 RMK A01 T03490179  RH  037%=      5-min Rain = 0
KWT1 142147Z 05013KT 35/18 A3005 RMK A01 T03490177  RH  036%=      5-min Rain = 0
KWT1 142148Z 06009KT 35/18 A3005 RMK A01 T03480177  RH  036%=      5-min Rain = 0
KWT1 142149Z 06006KT 35/18 A3004 RMK A01 T03470179  RH  037%=      5-min Rain = 0
KWT1 142150Z 06006KT 35/18 A3004 RMK A01 T03490179  RH  037%=      5-min Rain = 0
KWT1 142151Z 07004KT 35/18 A3004 RMK A01 T03470178  RH  037%=      5-min Rain = 0
KWT1 142152Z 08005KT 35/18 A3004 RMK A01 T03460180  RH  038%=      5-min Rain = 0
KWT1 142153Z 07008KT 35/18 A3004 RMK A01 T03480179  RH  037%=      5-min Rain = 0
KWT1 142154Z 07009G15KT 35/18 A3004 RMK A01 T03480178  RH  037%=      5-min Rain = 0
KWT1 142155Z 10014KT 35/18 A3004 RMK A01 T03480177  RH  036%=      5-min Rain = 0
KWT1 142156Z 09014KT 35/18 A3004 RMK A01 T03490177  RH  036%=      5-min Rain = 0
KWT1 142157Z 07015KT 35/18 A3004 RMK A01 T03510178  RH  036%=      5-min Rain = 0
KWT1 142158Z 08014KT 35/18 A3004 RMK A01 T03500179  RH  036%=      5-min Rain = 0
KWT1 142159Z 08013KT 35/18 A3005 RMK A01 T03500177  RH  036%=      5-min Rain = 0
KWT1 142200Z 08012KT 35/18 A3005 RMK A01 T03480175  RH  036%=      5-min Rain = 0
KWT1 142201Z 08008KT 35/17 A3005 RMK A01 T03460174  RH  036%=      5-min Rain = 0
KWT1 142202Z 09007KT 35/17 A3005 RMK A01 T03460174  RH  036%=      5-min Rain = 0
KWT1 142203Z 07007KT 35/17 A3005 RMK A01 T03460173  RH  036%=      5-min Rain = 0
KWT1 142204Z 06004KT 35/17 A3005 RMK A01 T03450173  RH  036%=      5-min Rain = 0
KWT1 142205Z 10008KT 35/17 A3005 RMK A01 T03450173  RH  036%=      5-min Rain = 0
KWT1 142206Z 08007KT 35/18 A3005 RMK A01 T03460175  RH  036%=      5-min Rain = 0
KWT1 142207Z 09007KT 35/18 A3005 RMK A01 T03470177  RH  037%=      5-min Rain = 0
KWT1 142208Z 09007G12KT 35/18 A3005 RMK A01 T03490176  RH  036%=      5-min Rain = 0
KWT1 142209Z 06012KT 35/18 A3005 RMK A01 T03500175  RH  035%=      5-min Rain = 0
KWT1 142210Z 06012KT 35/17 A3005 RMK A01 T03520173  RH  035%=      5-min Rain = 0
KWT1 142211Z 07010KT 35/17 A3005 RMK A01 T03510173  RH  035%=      5-min Rain = 0
KWT1 142212Z 07006KT 35/17 A3004 RMK A01 T03500172  RH  035%=      5-min Rain = 0
KWT1 142213Z 08006KT 35/17 A3004 RMK A01 T03510173  RH  035%=      5-min Rain = 0
KWT1 142214Z 08009KT 35/17 A3005 RMK A01 T03530173  RH  035%=      5-min Rain = 0
KWT1 142215Z 08012G17KT 35/17 A3004 RMK A01 T03520173  RH  035%=      5-min Rain = 0
KWT1 142216Z 08007G12KT 35/17 A3005 RMK A01 T03530173  RH  035%=      5-min Rain = 0
KWT1 142217Z 08012KT 35/18 A3005 RMK A01 T03530175  RH  035%=      5-min Rain = 0
KWT1 142218Z 11013KT 35/17 A3005 RMK A01 T03510174  RH  035%=      5-min Rain = 0
KWT1 142219Z 11010KT 35/17 A3004 RMK A01 T03490172  RH  035%=      5-min Rain = 0
KWT1 142220Z 11012KT 35/17 A3004 RMK A01 T03460172  RH  036%=      5-min Rain = 0
KWT1 142221Z 11012KT 35/17 A3004 RMK A01 T03460172  RH  036%=      5-min Rain = 0
KWT1 142222Z 08011KT 35/17 A3004 RMK A01 T03480170  RH  035%=      5-min Rain = 0
KWT1 142223Z 11011KT 35/17 A3004 RMK A01 T03510172  RH  035%=      5-min Rain = 0
KWT1 142224Z 09009KT 35/17 A3004 RMK A01 T03520173  RH  035%=      5-min Rain = 0
KWT1 142225Z 08012KT 35/17 A3004 RMK A01 T03530173  RH  034%=      5-min Rain = 0
KWT1 142226Z 07012KT 35/17 A3004 RMK A01 T03530172  RH  034%=      5-min Rain = 0
KWT1 142227Z 07009KT 35/17 A3004 RMK A01 T03500171  RH  035%=      5-min Rain = 0
KWT1 142228Z 08010KT 35/17 A3004 RMK A01 T03500172  RH  035%=      5-min Rain = 0
KWT1 142229Z 07011KT 35/17 A3004 RMK A01 T03510173  RH  035%=      5-min Rain = 0
KWT1 142230Z 05007KT 35/17 A3004 RMK A01 T03500173  RH  035%=      5-min Rain = 0
KWT1 142231Z 07007KT 35/17 A3004 RMK A01 T03500174  RH  035%=      5-min Rain = 0
KWT1 142232Z 09007KT 35/17 A3004 RMK A01 T03510173  RH  035%=      5-min Rain = 0
KWT1 142233Z 08009KT 35/17 A3004 RMK A01 T03540171  RH  034%=      5-min Rain = 0
KWT1 142234Z 09009KT 35/17 A3004 RMK A01 T03530169  RH  033%=      5-min Rain = 0
KWT1 142235Z 07009KT 35/17 A3004 RMK A01 T03520169  RH  034%=      5-min Rain = 0
KWT1 142236Z 08008KT 35/17 A3004 RMK A01 T03500167  RH  034%=      5-min Rain = 0
KWT1 142237Z 09006KT 35/17 A3004 RMK A01 T03480167  RH  034%=      5-min Rain = 0
KWT1 142238Z 10006KT 35/17 A3004 RMK A01 T03470168  RH  035%=      5-min Rain = 0
KWT1 142239Z 08008G13KT 35/17 A3004 RMK A01 T03500172  RH  035%=      5-min Rain = 0
KWT1 142240Z 08012KT 35/17 A3004 RMK A01 T03520172  RH  034%=      5-min Rain = 0
KWT1 142241Z 10012KT 35/17 A3004 RMK A01 T03520171  RH  034%=      5-min Rain = 0
KWT1 142242Z 10012KT 35/17 A3004 RMK A01 T03520171  RH  034%=      5-min Rain = 0
KWT1 142243Z 10010KT 35/17 A3004 RMK A01 T03500171  RH  034%=      5-min Rain = 0
KWT1 142244Z 10010KT 35/17 A3004 RMK A01 T03490170  RH  034%=      5-min Rain = 0
KWT1 142245Z 10007KT 35/17 A3003 RMK A01 T03480168  RH  035%=      5-min Rain = 0
KWT1 142246Z 10009KT 35/17 A3003 RMK A01 T03480168  RH  034%=      5-min Rain = 0
KWT1 142247Z 08011KT 35/17 A3004 RMK A01 T03480170  RH  035%=      5-min Rain = 0
KWT1 142248Z 07008KT 35/17 A3003 RMK A01 T03480172  RH  035%=      5-min Rain = 0
KWT1 142249Z 09006KT 35/17 A3003 RMK A01 T03470171  RH  035%=      5-min Rain = 0
KWT1 142250Z 08005KT 35/17 A3003 RMK A01 T03460170  RH  035%=      5-min Rain = 0
KWT1 142251Z 08006KT 35/17 A3003 RMK A01 T03460170  RH  035%=      5-min Rain = 0
KWT1 142252Z 09010KT 35/17 A3004 RMK A01 T03470174  RH  036%=      5-min Rain = 0
KWT1 142253Z 09010KT 35/18 A3003 RMK A01 T03470175  RH  036%=      5-min Rain = 0
KWT1 142254Z 06011KT 35/18 A3003 RMK A01 T03470176  RH  036%=      5-min Rain = 0
KWT1 142255Z 07010KT 35/18 A3003 RMK A01 T03470176  RH  036%=      5-min Rain = 0
KWT1 142256Z 08008KT 35/18 A3003 RMK A01 T03460176  RH  037%=      5-min Rain = 0
KWT1 142257Z 10010KT 35/18 A3003 RMK A01 T03450176  RH  037%=      5-min Rain = 0
KWT1 142258Z 10007KT 35/17 A3003 RMK A01 T03450173  RH  036%=      5-min Rain = 0
KWT1 142259Z 09003KT 34/17 A3003 RMK A01 T03430173  RH  036%=      5-min Rain = 0
KWT1 142300Z 08005KT 34/17 A3003 RMK A01 T03440173  RH  036%=      5-min Rain = 0
KWT1 142301Z 09010KT 35/18 A3003 RMK A01 T03450175  RH  037%=      5-min Rain = 0
KWT1 142302Z 09009KT 35/18 A3003 RMK A01 T03460175  RH  036%=      5-min Rain = 0
KWT1 142303Z 10006KT 35/18 A3003 RMK A01 T03490177  RH  036%=      5-min Rain = 0
KWT1 142304Z 09009KT 35/18 A3003 RMK A01 T03520176  RH  035%=      5-min Rain = 0
KWT1 142305Z 11011KT 35/17 A3003 RMK A01 T03530173  RH  035%=      5-min Rain = 0
KWT1 142306Z 12008KT 35/17 A3003 RMK A01 T03510170  RH  034%=      5-min Rain = 0
KWT1 142307Z 12007KT 35/17 A3003 RMK A01 T03500170  RH  034%=      5-min Rain = 0
KWT1 142308Z 07006KT 35/17 A3003 RMK A01 T03480170  RH  035%=      5-min Rain = 0
KWT1 142309Z 07006KT 35/17 A3003 RMK A01 T03480171  RH  035%=      5-min Rain = 0
KWT1 142310Z 07004KT 35/17 A3003 RMK A01 T03480171  RH  035%=      5-min Rain = 0
KWT1 142311Z 07005KT 35/17 A3003 RMK A01 T03470170  RH  035%=      5-min Rain = 0
KWT1 142312Z 09011KT 35/17 A3003 RMK A01 T03470171  RH  035%=      5-min Rain = 0
KWT1 142313Z 09012KT 35/17 A3003 RMK A01 T03480170  RH  035%=      5-min Rain = 0
KWT1 142314Z 09010KT 35/17 A3003 RMK A01 T03470169  RH  035%=      5-min Rain = 0
KWT1 142315Z 11009KT 35/17 A3004 RMK A01 T03460169  RH  035%=      5-min Rain = 0
KWT1 142316Z 13007KT 35/17 A3003 RMK A01 T03450168  RH  035%=      5-min Rain = 0
KWT1 142317Z 13006KT 34/17 A3003 RMK A01 T03440168  RH  035%=      5-min Rain = 0
KWT1 142318Z 12008KT 34/17 A3003 RMK A01 T03430168  RH  035%=      5-min Rain = 0
KWT1 142319Z 10007KT 34/17 A3004 RMK A01 T03430167  RH  035%=      5-min Rain = 0
KWT1 142320Z 09007KT 34/17 A3004 RMK A01 T03430167  RH  035%=      5-min Rain = 0
KWT1 142321Z 09008KT 34/17 A3003 RMK A01 T03430168  RH  035%=      5-min Rain = 0
KWT1 142322Z 08009KT 34/17 A3003 RMK A01 T03430167  RH  035%=      5-min Rain = 0
KWT1 142323Z 07007KT 34/17 A3003 RMK A01 T03440167  RH  035%=      5-min Rain = 0
KWT1 142324Z 07007KT 35/17 A3003 RMK A01 T03450168  RH  035%=      5-min Rain = 0
KWT1 142325Z 06007KT 35/17 A3003 RMK A01 T03450169  RH  035%=      5-min Rain = 0
KWT1 142326Z 07009KT 35/17 A3003 RMK A01 T03460169  RH  035%=      5-min Rain = 0
KWT1 142327Z 08006KT 35/17 A3003 RMK A01 T03460170  RH  035%=      5-min Rain = 0
KWT1 142328Z 07009KT 35/17 A3003 RMK A01 T03480170  RH  035%=      5-min Rain = 0
KWT1 142329Z 07010KT 35/17 A3003 RMK A01 T03480169  RH  035%=      5-min Rain = 0
KWT1 142330Z 06011KT 35/17 A3003 RMK A01 T03460169  RH  035%=      5-min Rain = 0
KWT1 142331Z 06011KT 34/17 A3003 RMK A01 T03440166  RH  035%=      5-min Rain = 0
KWT1 142332Z 05010KT 34/17 A3003 RMK A01 T03430165  RH  035%=      5-min Rain = 0
KWT1 142333Z 07008KT 34/17 A3003 RMK A01 T03440166  RH  035%=      5-min Rain = 0
KWT1 142334Z 09008KT 35/17 A3003 RMK A01 T03450167  RH  035%=      5-min Rain = 0
KWT1 142335Z 10010KT 35/16 A3003 RMK A01 T03460164  RH  034%=      5-min Rain = 0
KWT1 142336Z 10008KT 35/16 A3003 RMK A01 T03460162  RH  034%=      5-min Rain = 0
KWT1 142337Z 10007KT 35/16 A3003 RMK A01 T03450161  RH  034%=      5-min Rain = 0
KWT1 142338Z 10007KT 35/16 A3003 RMK A01 T03450163  RH  034%=      5-min Rain = 0
KWT1 142339Z 12010KT 35/16 A3003 RMK A01 T03470164  RH  034%=      5-min Rain = 0
KWT1 142340Z 10009KT 35/16 A3003 RMK A01 T03480164  RH  034%=      5-min Rain = 0
KWT1 142341Z 09008KT 35/16 A3003 RMK A01 T03460164  RH  034%=      5-min Rain = 0
KWT1 142342Z 10010KT 35/17 A3003 RMK A01 T03460167  RH  034%=      5-min Rain = 0
KWT1 142343Z 09009KT 35/17 A3003 RMK A01 T03460167  RH  034%=      5-min Rain = 0
KWT1 142344Z 09008KT 35/17 A3003 RMK A01 T03460167  RH  035%=      5-min Rain = 0
KWT1 142345Z 10007KT 35/17 A3003 RMK A01 T03460167  RH  035%=      5-min Rain = 0
KWT1 142346Z 11008KT 35/17 A3003 RMK A01 T03450166  RH  035%=      5-min Rain = 0
KWT1 142347Z 10007KT 34/17 A3003 RMK A01 T03440166  RH  035%=      5-min Rain = 0
KWT1 142348Z 11008KT 34/17 A3003 RMK A01 T03430167  RH  035%=      5-min Rain = 0
KWT1 142349Z 11008KT 34/17 A3003 RMK A01 T03430167  RH  035%=      5-min Rain = 0
KWT1 142350Z 12008KT 34/17 A3003 RMK A01 T03430167  RH  035%=      5-min Rain = 0
KWT1 142351Z 10009KT 34/17 A3003 RMK A01 T03420167  RH  035%=      5-min Rain = 0
KWT1 142352Z 09008KT 34/17 A3003 RMK A01 T03420168  RH  035%=      5-min Rain = 0
KWT1 142353Z 09005KT 34/17 A3003 RMK A01 T03400168  RH  036%=      5-min Rain = 0
KWT1 142354Z 08006KT 34/17 A3003 RMK A01 T03400169  RH  036%=      5-min Rain = 0
KWT1 142355Z 10006KT 34/17 A3003 RMK A01 T03400169  RH  036%=      5-min Rain = 0
KWT1 142356Z 08006KT 34/17 A3003 RMK A01 T03400169  RH  036%=      5-min Rain = 0
KWT1 142357Z 08006KT 34/17 A3003 RMK A01 T03410170  RH  036%=      5-min Rain = 0
KWT1 142358Z 10005KT 34/17 A3003 RMK A01 T03420170  RH  036%=      5-min Rain = 0
KWT1 142359Z 10006KT 34/17 A3003 RMK A01 T03420170  RH  036%=      5-min Rain = 0
KWT1 150000Z 09005KT 34/17 A3003 RMK A01 T03420170  RH  036%=      5-min Rain = 0
KWT1 150001Z 09005KT 34/17 A3003 RMK A01 T03420170  RH  036%=      5-min Rain = 0
KWT1 150002Z 07008KT 34/17 A3003 RMK A01 T03420170  RH  036%=      5-min Rain = 0
KWT1 150003Z 07010KT 34/17 A3003 RMK A01 T03430170  RH  036%=      5-min Rain = 0
KWT1 150004Z 07010KT 34/17 A3003 RMK A01 T03420170  RH  036%=      5-min Rain = 0
KWT1 150005Z 07010KT 34/17 A3003 RMK A01 T03410169  RH  036%=      5-min Rain = 0
KWT1 150006Z 07010KT 34/17 A3003 RMK A01 T03400168  RH  036%=      5-min Rain = 0
KWT1 150007Z 08011KT 34/17 A3003 RMK A01 T03400168  RH  036%=      5-min Rain = 0
KWT1 150008Z 08009KT 34/17 A3003 RMK A01 T03390167  RH  036%=      5-min Rain = 0
KWT1 150009Z 08007KT 34/17 A3003 RMK A01 T03380167  RH  036%=      5-min Rain = 0
KWT1 150010Z 08007KT 34/17 A3003 RMK A01 T03380167  RH  036%=      5-min Rain = 0
KWT1 150011Z 09010KT 34/17 A3003 RMK A01 T03390168  RH  036%=      5-min Rain = 0
KWT1 150012Z 09013KT 34/17 A3003 RMK A01 T03390167  RH  036%=      5-min Rain = 0
KWT1 150013Z 10011KT 34/17 A3003 RMK A01 T03390167  RH  036%=      5-min Rain = 0
KWT1 150014Z 10011KT 34/17 A3003 RMK A01 T03380168  RH  036%=      5-min Rain = 0
KWT1 150015Z 10011KT 34/17 A3003 RMK A01 T03380168  RH  036%=      5-min Rain = 0
KWT1 150016Z 08008KT 34/17 A3003 RMK A01 T03380169  RH  037%=      5-min Rain = 0
KWT1 150017Z 09010KT 34/17 A3003 RMK A01 T03380171  RH  037%=      5-min Rain = 0
KWT1 150018Z 09012KT 34/17 A3003 RMK A01 T03380168  RH  036%=      5-min Rain = 0
KWT1 150019Z 08011KT 34/17 A3003 RMK A01 T03370168  RH  037%=      5-min Rain = 0
KWT1 150020Z 07008KT 34/17 A3003 RMK A01 T03360169  RH  037%=      5-min Rain = 0
KWT1 150021Z 07008KT 34/17 A3003 RMK A01 T03350169  RH  037%=      5-min Rain = 0
KWT1 150022Z 07007KT 34/17 A3003 RMK A01 T03350169  RH  037%=      5-min Rain = 0
KWT1 150023Z 08009KT 34/17 A3003 RMK A01 T03350169  RH  037%=      5-min Rain = 0
KWT1 150024Z 09008KT 34/17 A3003 RMK A01 T03350169  RH  037%=      5-min Rain = 0
KWT1 150025Z 08009KT 34/17 A3003 RMK A01 T03350169  RH  037%=      5-min Rain = 0
KWT1 150026Z 07007KT 34/17 A3003 RMK A01 T03350168  RH  037%=      5-min Rain = 0
KWT1 150027Z 07006KT 34/17 A3003 RMK A01 T03350170  RH  037%=      5-min Rain = 0
KWT1 150028Z 07006KT 34/17 A3003 RMK A01 T03350171  RH  038%=      5-min Rain = 0
KWT1 150029Z 06008KT 34/17 A3003 RMK A01 T03350169  RH  037%=      5-min Rain = 0
KWT1 150030Z 06009KT 34/17 A3003 RMK A01 T03350169  RH  037%=      5-min Rain = 0
KWT1 150031Z 07009KT 33/17 A3003 RMK A01 T03340170  RH  038%=      5-min Rain = 0
KWT1 150032Z 06008KT 33/17 A3003 RMK A01 T03330169  RH  038%=      5-min Rain = 0
KWT1 150033Z 06009KT 33/17 A3003 RMK A01 T03330169  RH  037%=      5-min Rain = 0
KWT1 150034Z 07008KT 33/17 A3003 RMK A01 T03330168  RH  037%=      5-min Rain = 0
KWT1 150035Z 07008KT 33/17 A3003 RMK A01 T03330168  RH  037%=      5-min Rain = 0
KWT1 150036Z 07007KT 33/17 A3003 RMK A01 T03330169  RH  038%=      5-min Rain = 0
KWT1 150037Z 08011KT 33/17 A3003 RMK A01 T03330169  RH  038%=      5-min Rain = 0
KWT1 150038Z 07009KT 33/17 A3003 RMK A01 T03320167  RH  037%=      5-min Rain = 0
KWT1 150039Z 07009KT 33/17 A3003 RMK A01 T03310168  RH  038%=      5-min Rain = 0
KWT1 150040Z 07007KT 33/17 A3003 RMK A01 T03310169  RH  038%=      5-min Rain = 0
KWT1 150041Z 07009KT 33/17 A3003 RMK A01 T03300169  RH  038%=      5-min Rain = 0
KWT1 150042Z 08007KT 33/17 A3003 RMK A01 T03300168  RH  038%=      5-min Rain = 0
KWT1 150043Z 07009KT 33/17 A3003 RMK A01 T03300168  RH  038%=      5-min Rain = 0
KWT1 150044Z 07009KT 33/17 A3003 RMK A01 T03290167  RH  038%=      5-min Rain = 0
KWT1 150045Z 07006KT 33/17 A3003 RMK A01 T03290167  RH  038%=      5-min Rain = 0
KWT1 150046Z 07007KT 33/17 A3003 RMK A01 T03290168  RH  038%=      5-min Rain = 0
KWT1 150047Z 07009KT 33/17 A3003 RMK A01 T03290166  RH  038%=      5-min Rain = 0
KWT1 150048Z 07008KT 33/17 A3003 RMK A01 T03280166  RH  038%=      5-min Rain = 0
KWT1 150049Z 07009KT 33/17 A3003 RMK A01 T03290167  RH  038%=      5-min Rain = 0
KWT1 150050Z 06010KT 33/17 A3003 RMK A01 T03280167  RH  038%=      5-min Rain = 0
KWT1 150051Z 07008KT 33/17 A3003 RMK A01 T03280167  RH  038%=      5-min Rain = 0
KWT1 150052Z 07007KT 33/17 A3003 RMK A01 T03280167  RH  038%=      5-min Rain = 0
KWT1 150053Z 07006KT 33/17 A3003 RMK A01 T03280168  RH  039%=      5-min Rain = 0
KWT1 150054Z 07007KT 33/17 A3003 RMK A01 T03270170  RH  039%=      5-min Rain = 0
KWT1 150055Z 07006KT 33/17 A3004 RMK A01 T03260170  RH  039%=      5-min Rain = 0
KWT1 150056Z 08006KT 33/17 A3004 RMK A01 T03260171  RH  040%=      5-min Rain = 0
KWT1 150057Z 08005KT 33/17 A3004 RMK A01 T03250171  RH  040%=      5-min Rain = 0
KWT1 150058Z 07007KT 32/17 A3004 RMK A01 T03240170  RH  040%=      5-min Rain = 0
KWT1 150059Z 06005KT 33/17 A3004 RMK A01 T03250170  RH  040%=      5-min Rain = 0
KWT1 150100Z 07006KT 32/17 A3004 RMK A01 T03240170  RH  040%=      5-min Rain = 0
KWT1 150101Z 06006KT 32/17 A3004 RMK A01 T03240170  RH  040%=      5-min Rain = 0
KWT1 150102Z 06007KT 32/17 A3004 RMK A01 T03240169  RH  040%=      5-min Rain = 0
KWT1 150103Z 06006KT 32/17 A3004 RMK A01 T03240169  RH  040%=      5-min Rain = 0
KWT1 150104Z 07005KT 32/17 A3004 RMK A01 T03230169  RH  040%=      5-min Rain = 0
KWT1 150105Z 06005KT 32/17 A3004 RMK A01 T03230169  RH  040%=      5-min Rain = 0
KWT1 150106Z 07006KT 32/17 A3004 RMK A01 T03230170  RH  040%=      5-min Rain = 0
KWT1 150107Z 07006KT 32/17 A3004 RMK A01 T03220170  RH  040%=      5-min Rain = 0
KWT1 150108Z 07008KT 32/17 A3004 RMK A01 T03210169  RH  040%=      5-min Rain = 0
KWT1 150109Z 07008KT 32/17 A3004 RMK A01 T03210169  RH  040%=      5-min Rain = 0
KWT1 150110Z 07007KT 32/17 A3004 RMK A01 T03210169  RH  040%=      5-min Rain = 0
KWT1 150111Z 08007KT 32/17 A3005 RMK A01 T03210169  RH  040%=      5-min Rain = 0
KWT1 150112Z 07008KT 32/17 A3005 RMK A01 T03210170  RH  040%=      5-min Rain = 0
KWT1 150113Z 07008KT 32/17 A3005 RMK A01 T03200170  RH  041%=      5-min Rain = 0
KWT1 150114Z 08006KT 32/17 A3005 RMK A01 T03200170  RH  041%=      5-min Rain = 0
KWT1 150115Z 07007KT 32/17 A3005 RMK A01 T03200170  RH  041%=      5-min Rain = 0
KWT1 150116Z 07006KT 32/17 A3005 RMK A01 T03190171  RH  041%=      5-min Rain = 0
KWT1 150117Z 07006KT 32/17 A3005 RMK A01 T03180171  RH  041%=      5-min Rain = 0
KWT1 150118Z 07008KT 32/17 A3005 RMK A01 T03170171  RH  042%=      5-min Rain = 0
KWT1 150119Z 07008KT 32/17 A3005 RMK A01 T03170170  RH  041%=      5-min Rain = 0
KWT1 150120Z 07007KT 32/17 A3005 RMK A01 T03170170  RH  041%=      5-min Rain = 0
KWT1 150121Z 07006KT 32/17 A3005 RMK A01 T03170170  RH  041%=      5-min Rain = 0
KWT1 150122Z 07007KT 32/17 A3005 RMK A01 T03170170  RH  042%=      5-min Rain = 0
KWT1 150123Z 08007KT 32/17 A3005 RMK A01 T03160170  RH  042%=      5-min Rain = 0
KWT1 150124Z 08007KT 32/17 A3005 RMK A01 T03160170  RH  042%=      5-min Rain = 0
KWT1 150125Z 07007KT 32/17 A3005 RMK A01 T03160170  RH  042%=      5-min Rain = 0
KWT1 150126Z 07007KT 32/17 A3005 RMK A01 T03150170  RH  042%=      5-min Rain = 0
KWT1 150127Z 07006KT 31/17 A3005 RMK A01 T03140170  RH  042%=      5-min Rain = 0
KWT1 150128Z 07007KT 31/17 A3005 RMK A01 T03140170  RH  042%=      5-min Rain = 0
KWT1 150129Z 07007KT 31/17 A3005 RMK A01 T03130170  RH  042%=      5-min Rain = 0
KWT1 150130Z 08006KT 31/17 A3005 RMK A01 T03130170  RH  042%=      5-min Rain = 0
KWT1 150131Z 07006KT 31/17 A3005 RMK A01 T03130170  RH  042%=      5-min Rain = 0
KWT1 150132Z 07008KT 31/17 A3005 RMK A01 T03120170  RH  043%=      5-min Rain = 0
KWT1 150133Z 07008KT 31/17 A3006 RMK A01 T03120170  RH  043%=      5-min Rain = 0
KWT1 150134Z 07007KT 31/17 A3006 RMK A01 T03120170  RH  043%=      5-min Rain = 0
KWT1 150135Z 07007KT 31/17 A3006 RMK A01 T03120171  RH  043%=      5-min Rain = 0
KWT1 150136Z 07006KT 31/17 A3006 RMK A01 T03120171  RH  043%=      5-min Rain = 0
KWT1 150137Z 08006KT 31/17 A3006 RMK A01 T03110171  RH  043%=      5-min Rain = 0
KWT1 150138Z 08007KT 31/17 A3006 RMK A01 T03100171  RH  043%=      5-min Rain = 0
KWT1 150139Z 08006KT 31/17 A3006 RMK A01 T03100171  RH  043%=      5-min Rain = 0
KWT1 150140Z 08005KT 31/17 A3006 RMK A01 T03100171  RH  043%=      5-min Rain = 0
KWT1 150141Z 08006KT 31/17 A3006 RMK A01 T03100172  RH  044%=      5-min Rain = 0
KWT1 150142Z 08006KT 31/17 A3006 RMK A01 T03090171  RH  044%=      5-min Rain = 0
KWT1 150143Z 07007KT 31/17 A3006 RMK A01 T03080171  RH  044%=      5-min Rain = 0
KWT1 150144Z 07006KT 31/17 A3006 RMK A01 T03080171  RH  044%=      5-min Rain = 0
KWT1 150145Z 08006KT 31/17 A3006 RMK A01 T03080172  RH  044%=      5-min Rain = 0
KWT1 150146Z 07006KT 31/17 A3006 RMK A01 T03080171  RH  044%=      5-min Rain = 0
KWT1 150147Z 07006KT 31/17 A3006 RMK A01 T03070171  RH  044%=      5-min Rain = 0
KWT1 150148Z 08005KT 31/17 A3006 RMK A01 T03070171  RH  044%=      5-min Rain = 0
KWT1 150149Z 08006KT 31/17 A3006 RMK A01 T03060171  RH  044%=      5-min Rain = 0
KWT1 150150Z 07006KT 31/17 A3006 RMK A01 T03050171  RH  044%=      5-min Rain = 0
KWT1 150151Z 08006KT 31/17 A3006 RMK A01 T03050170  RH  044%=      5-min Rain = 0
KWT1 150152Z 08005KT 31/17 A3006 RMK A01 T03050170  RH  044%=      5-min Rain = 0
KWT1 150153Z 08006KT 31/17 A3006 RMK A01 T03050170  RH  045%=      5-min Rain = 0
KWT1 150154Z 08005KT 30/17 A3006 RMK A01 T03040171  RH  045%=      5-min Rain = 0
KWT1 150155Z 08006KT 30/17 A3006 RMK A01 T03040171  RH  045%=      5-min Rain = 0
KWT1 150156Z 08006KT 30/17 A3006 RMK A01 T03030171  RH  045%=      5-min Rain = 0
KWT1 150157Z 08006KT 30/17 A3006 RMK A01 T03030171  RH  045%=      5-min Rain = 0
KWT1 150158Z 08006KT 30/17 A3006 RMK A01 T03020171  RH  045%=      5-min Rain = 0
KWT1 150159Z 08005KT 30/17 A3006 RMK A01 T03010171  RH  045%=      5-min Rain = 0
KWT1 150200Z 08005KT 30/17 A3007 RMK A01 T03010171  RH  046%=      5-min Rain = 0
KWT1 150201Z 08005KT 30/17 A3007 RMK A01 T03010171  RH  046%=      5-min Rain = 0
KWT1 150202Z 08006KT 30/17 A3007 RMK A01 T03000170  RH  046%=      5-min Rain = 0
KWT1 150203Z 08006KT 30/17 A3007 RMK A01 T03000171  RH  046%=      5-min Rain = 0
KWT1 150204Z 08006KT 30/17 A3007 RMK A01 T03000171  RH  046%=      5-min Rain = 0
KWT1 150205Z 08005KT 30/17 A3007 RMK A01 T02990170  RH  046%=      5-min Rain = 0
KWT1 150206Z 08005KT 30/17 A3007 RMK A01 T03000171  RH  046%=      5-min Rain = 0
KWT1 150207Z 08005KT 30/17 A3007 RMK A01 T03000171  RH  046%=      5-min Rain = 0
KWT1 150208Z 08005KT 30/17 A3007 RMK A01 T03000171  RH  046%=      5-min Rain = 0
KWT1 150209Z 08005KT 30/17 A3007 RMK A01 T03000171  RH  046%=      5-min Rain = 0
KWT1 150210Z 08005KT 30/17 A3007 RMK A01 T03000171  RH  046%=      5-min Rain = 0
KWT1 150211Z 08005KT 30/17 A3007 RMK A01 T02990172  RH  046%=      5-min Rain = 0
KWT1 150212Z 08005KT 30/17 A3007 RMK A01 T02990171  RH  046%=      5-min Rain = 0
KWT1 150213Z 08005KT 30/17 A3007 RMK A01 T02990171  RH  046%=      5-min Rain = 0
KWT1 150214Z 08005KT 30/17 A3007 RMK A01 T02980171  RH  046%=      5-min Rain = 0
KWT1 150215Z 08006KT 30/17 A3007 RMK A01 T02980172  RH  047%=      5-min Rain = 0
KWT1 150216Z 08006KT 30/17 A3007 RMK A01 T02980172  RH  047%=      5-min Rain = 0
KWT1 150217Z 08005KT 30/17 A3007 RMK A01 T02980171  RH  046%=      5-min Rain = 0
KWT1 150218Z 08006KT 30/17 A3008 RMK A01 T02980171  RH  047%=      5-min Rain = 0
KWT1 150219Z 08005KT 30/17 A3008 RMK A01 T02980172  RH  047%=      5-min Rain = 0
KWT1 150220Z 08006KT 30/17 A3008 RMK A01 T02980172  RH  047%=      5-min Rain = 0
KWT1 150221Z 08006KT 30/17 A3008 RMK A01 T02980173  RH  047%=      5-min Rain = 0
KWT1 150222Z 08006KT 30/17 A3008 RMK A01 T02980172  RH  047%=      5-min Rain = 0
KWT1 150223Z 08005KT 30/17 A3008 RMK A01 T02980172  RH  047%=      5-min Rain = 0
KWT1 150224Z 08006KT 30/17 A3008 RMK A01 T02970172  RH  047%=      5-min Rain = 0
KWT1 150225Z 08006KT 30/17 A3008 RMK A01 T02980173  RH  047%=      5-min Rain = 0
KWT1 150226Z 08006KT 30/17 A3008 RMK A01 T02980173  RH  047%=      5-min Rain = 0
KWT1 150227Z 08006KT 30/17 A3008 RMK A01 T02980173  RH  047%=      5-min Rain = 0
KWT1 150228Z 07005KT 30/17 A3008 RMK A01 T02970173  RH  047%=      5-min Rain = 0
KWT1 150229Z 08006KT 30/17 A3008 RMK A01 T02970173  RH  047%=      5-min Rain = 0
KWT1 150230Z 07006KT 30/17 A3008 RMK A01 T02970173  RH  047%=      5-min Rain = 0
KWT1 150231Z 07006KT 30/17 A3008 RMK A01 T02970173  RH  047%=      5-min Rain = 0
KWT1 150232Z 07006KT 30/17 A3008 RMK A01 T02970174  RH  047%=      5-min Rain = 0
KWT1 150233Z 07006KT 30/17 A3008 RMK A01 T02970173  RH  047%=      5-min Rain = 0
KWT1 150234Z 07006KT 30/17 A3008 RMK A01 T02970173  RH  047%=      5-min Rain = 0
KWT1 150235Z 07006KT 30/17 A3008 RMK A01 T02970173  RH  047%=      5-min Rain = 0
KWT1 150236Z 07005KT 30/17 A3008 RMK A01 T02970173  RH  047%=      5-min Rain = 0
KWT1 150237Z 07006KT 30/17 A3008 RMK A01 T02970174  RH  047%=      5-min Rain = 0
KWT1 150238Z 07005KT 30/17 A3009 RMK A01 T02970173  RH  047%=      5-min Rain = 0
KWT1 150239Z 07005KT 30/17 A3009 RMK A01 T02970174  RH  048%=      5-min Rain = 0
KWT1 150240Z 07005KT 30/17 A3009 RMK A01 T02960174  RH  048%=      5-min Rain = 0
KWT1 150241Z 07005KT 30/17 A3009 RMK A01 T02960174  RH  048%=      5-min Rain = 0
KWT1 150242Z 07005KT 30/17 A3009 RMK A01 T02960174  RH  048%=      5-min Rain = 0
KWT1 150243Z 07005KT 30/17 A3009 RMK A01 T02950173  RH  048%=      5-min Rain = 0
KWT1 150244Z 07005KT 30/17 A3009 RMK A01 T02950173  RH  048%=      5-min Rain = 0
KWT1 150245Z 07005KT 30/17 A3009 RMK A01 T02950173  RH  048%=      5-min Rain = 0
KWT1 150246Z 07005KT 30/17 A3009 RMK A01 T02950173  RH  048%=      5-min Rain = 0
KWT1 150247Z 07005KT 30/17 A3009 RMK A01 T02950173  RH  048%=      5-min Rain = 0
KWT1 150248Z 07005KT 29/17 A3009 RMK A01 T02940173  RH  048%=      5-min Rain = 0
KWT1 150249Z 07005KT 29/17 A3009 RMK A01 T02940173  RH  048%=      5-min Rain = 0
KWT1 150250Z 07005KT 29/17 A3009 RMK A01 T02940173  RH  048%=      5-min Rain = 0
KWT1 150251Z 07005KT 29/17 A3009 RMK A01 T02940174  RH  048%=      5-min Rain = 0
KWT1 150252Z 08005KT 29/17 A3009 RMK A01 T02940173  RH  048%=      5-min Rain = 0
KWT1 150253Z 07005KT 29/17 A3009 RMK A01 T02940174  RH  048%=      5-min Rain = 0
KWT1 150254Z 07005KT 29/17 A3009 RMK A01 T02930174  RH  049%=      5-min Rain = 0
KWT1 150255Z 07006KT 29/17 A3009 RMK A01 T02930174  RH  049%=      5-min Rain = 0
KWT1 150256Z 07005KT 29/18 A3009 RMK A01 T02930175  RH  049%=      5-min Rain = 0
KWT1 150257Z 08006KT 29/18 A3009 RMK A01 T02930175  RH  049%=      5-min Rain = 0
KWT1 150258Z 07006KT 29/18 A3009 RMK A01 T02920175  RH  049%=      5-min Rain = 0
KWT1 150259Z 07006KT 29/18 A3009 RMK A01 T02920175  RH  049%=      5-min Rain = 0
KWT1 150300Z 07006KT 29/18 A3009 RMK A01 T02930175  RH  049%=      5-min Rain = 0
KWT1 150301Z 07007KT 29/18 A3009 RMK A01 T02930175  RH  049%=      5-min Rain = 0
KWT1 150302Z 07007KT 29/18 A3009 RMK A01 T02930175  RH  049%=      5-min Rain = 0
KWT1 150303Z 07008KT 29/18 A3009 RMK A01 T02940176  RH  049%=      5-min Rain = 0
KWT1 150304Z 07006KT 29/18 A3009 RMK A01 T02940176  RH  049%=      5-min Rain = 0
KWT1 150305Z 07007KT 29/18 A301 RMK A01 T02940177  RH  049%=      5-min Rain = 0
KWT1 150306Z 07006KT 29/18 A301 RMK A01 T02940177  RH  049%=      5-min Rain = 0
KWT1 150307Z 07007KT 29/18 A301 RMK A01 T02940177  RH  049%=      5-min Rain = 0
KWT1 150308Z 07006KT 29/18 A301 RMK A01 T02940178  RH  050%=      5-min Rain = 0
KWT1 150309Z 08006KT 29/18 A301 RMK A01 T02940178  RH  050%=      5-min Rain = 0
KWT1 150310Z 08006KT 29/18 A301 RMK A01 T02940178  RH  050%=      5-min Rain = 0
KWT1 150311Z 07007KT 29/18 A301 RMK A01 T02930178  RH  050%=      5-min Rain = 0
KWT1 150312Z 07007KT 29/18 A301 RMK A01 T02930178  RH  050%=      5-min Rain = 0
KWT1 150313Z 07007KT 29/18 A301 RMK A01 T02940178  RH  050%=      5-min Rain = 0
KWT1 150314Z 07008KT 29/18 A301 RMK A01 T02940179  RH  050%=      5-min Rain = 0
KWT1 150315Z 07007KT 29/18 A301 RMK A01 T02940179  RH  050%=      5-min Rain = 0
KWT1 150316Z 06007KT 29/18 A301 RMK A01 T02940179  RH  050%=      5-min Rain = 0
KWT1 150317Z 06007KT 29/18 A301 RMK A01 T02930179  RH  050%=      5-min Rain = 0
KWT1 150318Z 05009KT 29/18 A301 RMK A01 T02930179  RH  050%=      5-min Rain = 0
KWT1 150319Z 05009KT 29/18 A3009 RMK A01 T02940179  RH  050%=      5-min Rain = 0
KWT1 150320Z 05008KT 29/18 A3009 RMK A01 T02940180  RH  050%=      5-min Rain = 0
KWT1 150321Z 05009KT 29/18 A3009 RMK A01 T02940180  RH  050%=      5-min Rain = 0
KWT1 150322Z 06008KT 29/18 A3009 RMK A01 T02940180  RH  050%=      5-min Rain = 0
KWT1 150323Z 06008KT 29/18 A301 RMK A01 T02940181  RH  050%=      5-min Rain = 0
KWT1 150324Z 07007KT 29/18 A301 RMK A01 T02940181  RH  050%=      5-min Rain = 0
KWT1 150325Z 07008KT 30/18 A301 RMK A01 T02950181  RH  051%=      5-min Rain = 0
KWT1 150326Z 08007KT 30/18 A301 RMK A01 T02950182  RH  051%=      5-min Rain = 0
KWT1 150327Z 08007KT 30/18 A301 RMK A01 T02950181  RH  050%=      5-min Rain = 0
KWT1 150328Z 08007KT 30/18 A301 RMK A01 T02950181  RH  050%=      5-min Rain = 0
KWT1 150329Z 08007KT 30/18 A301 RMK A01 T02950181  RH  050%=      5-min Rain = 0
KWT1 150330Z 08007KT 30/18 A301 RMK A01 T02950181  RH  050%=      5-min Rain = 0
KWT1 150331Z 08007KT 30/18 A301 RMK A01 T02950181  RH  050%=      5-min Rain = 0
KWT1 150332Z 08007KT 30/18 A301 RMK A01 T02950181  RH  050%=      5-min Rain = 0
KWT1 150333Z 09007KT 30/18 A301 RMK A01 T02950181  RH  050%=      5-min Rain = 0
KWT1 150334Z 09007KT 30/18 A301 RMK A01 T02950181  RH  050%=      5-min Rain = 0
KWT1 150335Z 09007KT 30/18 A301 RMK A01 T02950181  RH  050%=      5-min Rain = 0
KWT1 150336Z 08008KT 29/18 A301 RMK A01 T02940180  RH  050%=      5-min Rain = 0
KWT1 150337Z 09007KT 29/18 A301 RMK A01 T02940181  RH  050%=      5-min Rain = 0
KWT1 150338Z 09006KT 30/18 A301 RMK A01 T02950181  RH  050%=      5-min Rain = 0
KWT1 150339Z 09007KT 29/18 A301 RMK A01 T02940181  RH  051%=      5-min Rain = 0
KWT1 150340Z 09007KT 29/18 A301 RMK A01 T02930180  RH  051%=      5-min Rain = 0
KWT1 150341Z 09008KT 29/18 A301 RMK A01 T02930180  RH  051%=      5-min Rain = 0
KWT1 150342Z 08007KT 29/18 A301 RMK A01 T02930180  RH  051%=      5-min Rain = 0
KWT1 150343Z 08009KT 29/18 A301 RMK A01 T02920180  RH  051%=      5-min Rain = 0
KWT1 150344Z 08007KT 29/18 A301 RMK A01 T02930180  RH  051%=      5-min Rain = 0
KWT1 150345Z 08008KT 29/18 A301 RMK A01 T02920181  RH  051%=      5-min Rain = 0
KWT1 150346Z 08007KT 29/18 A301 RMK A01 T02920181  RH  051%=      5-min Rain = 0
KWT1 150347Z 08007KT 29/18 A301 RMK A01 T02920181  RH  051%=      5-min Rain = 0
KWT1 150348Z 08006KT 29/18 A301 RMK A01 T02920181  RH  051%=      5-min Rain = 0
KWT1 150349Z 08006KT 29/18 A301 RMK A01 T02910181  RH  052%=      5-min Rain = 0
KWT1 150350Z 08006KT 29/18 A301 RMK A01 T02900181  RH  052%=      5-min Rain = 0
KWT1 150351Z 08005KT 29/18 A301 RMK A01 T02890180  RH  052%=      5-min Rain = 0
KWT1 150352Z 08006KT 29/18 A301 RMK A01 T02890181  RH  052%=      5-min Rain = 0
KWT1 150353Z 08006KT 29/18 A301 RMK A01 T02890181  RH  052%=      5-min Rain = 0
KWT1 150354Z 08006KT 29/18 A301 RMK A01 T02880181  RH  052%=      5-min Rain = 0
KWT1 150355Z 08006KT 29/18 A301 RMK A01 T02880181  RH  052%=      5-min Rain = 0
KWT1 150356Z 08007KT 29/18 A301 RMK A01 T02880181  RH  052%=      5-min Rain = 0
KWT1 150357Z 07006KT 29/18 A301 RMK A01 T02870181  RH  052%=      5-min Rain = 0
KWT1 150358Z 08006KT 29/18 A301 RMK A01 T02880181  RH  052%=      5-min Rain = 0
KWT1 150359Z 07006KT 29/18 A301 RMK A01 T02880181  RH  052%=      5-min Rain = 0
KWT1 150400Z 07007KT 29/18 A301 RMK A01 T02880181  RH  052%=      5-min Rain = 0
KWT1 150401Z 08007KT 29/18 A3011 RMK A01 T02890181  RH  052%=      5-min Rain = 0
KWT1 150402Z 08007KT 29/18 A3011 RMK A01 T02880181  RH  052%=      5-min Rain = 0
KWT1 150403Z 07007KT 29/18 A3011 RMK A01 T02890182  RH  052%=      5-min Rain = 0
KWT1 150404Z 08006KT 29/18 A301 RMK A01 T02880182  RH  053%=      5-min Rain = 0
KWT1 150405Z 08006KT 29/18 A301 RMK A01 T02880182  RH  053%=      5-min Rain = 0
KWT1 150406Z 08006KT 29/18 A301 RMK A01 T02880182  RH  053%=      5-min Rain = 0
KWT1 150407Z 08007KT 29/18 A301 RMK A01 T02870182  RH  053%=      5-min Rain = 0
KWT1 150408Z 08006KT 29/18 A301 RMK A01 T02870182  RH  053%=      5-min Rain = 0
KWT1 150409Z 08007KT 29/18 A301 RMK A01 T02860181  RH  053%=      5-min Rain = 0
KWT1 150410Z 08007KT 29/18 A301 RMK A01 T02860181  RH  053%=      5-min Rain = 0
KWT1 150411Z 08007KT 29/18 A301 RMK A01 T02860181  RH  053%=      5-min Rain = 0
KWT1 150412Z 08007KT 29/18 A301 RMK A01 T02860181  RH  053%=      5-min Rain = 0
KWT1 150413Z 09006KT 29/18 A301 RMK A01 T02870182  RH  053%=      5-min Rain = 0
KWT1 150414Z 08006KT 29/18 A301 RMK A01 T02860182  RH  053%=      5-min Rain = 0
KWT1 150415Z 08006KT 29/18 A301 RMK A01 T02850182  RH  053%=      5-min Rain = 0
KWT1 150416Z 08007KT 29/18 A301 RMK A01 T02850182  RH  054%=      5-min Rain = 0
KWT1 150417Z 08006KT 29/18 A301 RMK A01 T02850182  RH  054%=      5-min Rain = 0
KWT1 150418Z 08007KT 28/18 A301 RMK A01 T02840182  RH  054%=      5-min Rain = 0
KWT1 150419Z 08007KT 28/18 A301 RMK A01 T02840182  RH  054%=      5-min Rain = 0
KWT1 150420Z 08008KT 28/18 A301 RMK A01 T02840182  RH  054%=      5-min Rain = 0
KWT1 150421Z 08008KT 28/18 A301 RMK A01 T02840182  RH  054%=      5-min Rain = 0
KWT1 150422Z 08008KT 28/18 A301 RMK A01 T02840182  RH  054%=      5-min Rain = 0
KWT1 150423Z 08007KT 28/18 A301 RMK A01 T02840182  RH  054%=      5-min Rain = 0
KWT1 150424Z 08008KT 28/18 A301 RMK A01 T02840182  RH  054%=      5-min Rain = 0
KWT1 150425Z 08008KT 28/18 A301 RMK A01 T02840182  RH  054%=      5-min Rain = 0
KWT1 150426Z 08007KT 28/18 A301 RMK A01 T02840182  RH  054%=      5-min Rain = 0
KWT1 150427Z 09007KT 28/18 A301 RMK A01 T02840182  RH  054%=      5-min Rain = 0
KWT1 150428Z 09007KT 28/18 A3011 RMK A01 T02830182  RH  054%=      5-min Rain = 0
KWT1 150429Z 09007KT 28/18 A3011 RMK A01 T02820182  RH  054%=      5-min Rain = 0
KWT1 150430Z 09006KT 28/18 A3011 RMK A01 T02810182  RH  055%=      5-min Rain = 0
KWT1 150431Z 10006KT 28/18 A3011 RMK A01 T02810182  RH  055%=      5-min Rain = 0
KWT1 150432Z 09007KT 28/18 A3011 RMK A01 T02800181  RH  055%=      5-min Rain = 0
KWT1 150433Z 09006KT 28/18 A3011 RMK A01 T02790181  RH  055%=      5-min Rain = 0
KWT1 150434Z 09006KT 28/18 A3011 RMK A01 T02780181  RH  055%=      5-min Rain = 0
KWT1 150435Z 09006KT 28/18 A3011 RMK A01 T02780181  RH  056%=      5-min Rain = 0
KWT1 150436Z 09007KT 28/18 A3011 RMK A01 T02770181  RH  056%=      5-min Rain = 0
KWT1 150437Z 08007KT 28/18 A3011 RMK A01 T02780182  RH  056%=      5-min Rain = 0
KWT1 150438Z 08008KT 28/18 A3011 RMK A01 T02780182  RH  056%=      5-min Rain = 0
KWT1 150439Z 08008KT 28/18 A3011 RMK A01 T02780182  RH  056%=      5-min Rain = 0
KWT1 150440Z 08007KT 28/18 A3011 RMK A01 T02780182  RH  056%=      5-min Rain = 0
KWT1 150441Z 08007KT 28/18 A3011 RMK A01 T02780182  RH  056%=      5-min Rain = 0
KWT1 150442Z 08008KT 28/18 A3011 RMK A01 T02780182  RH  056%=      5-min Rain = 0
KWT1 150443Z 09007KT 28/18 A3011 RMK A01 T02780182  RH  056%=      5-min Rain = 0
KWT1 150444Z 08006KT 28/18 A3011 RMK A01 T02780182  RH  056%=      5-min Rain = 0
KWT1 150445Z 09007KT 28/18 A3011 RMK A01 T02780182  RH  056%=      5-min Rain = 0
KWT1 150446Z 09008KT 28/18 A3011 RMK A01 T02770182  RH  056%=      5-min Rain = 0
KWT1 150447Z 09006KT 28/18 A3011 RMK A01 T02770182  RH  056%=      5-min Rain = 0
KWT1 150448Z 09006KT 28/18 A3011 RMK A01 T02770182  RH  056%=      5-min Rain = 0
KWT1 150449Z 09006KT 28/18 A3011 RMK A01 T02760182  RH  056%=      5-min Rain = 0
KWT1 150450Z 09007KT 28/18 A3011 RMK A01 T02760182  RH  056%=      5-min Rain = 0
KWT1 150451Z 09006KT 28/18 A3011 RMK A01 T02760182  RH  057%=      5-min Rain = 0
KWT1 150452Z 09006KT 28/18 A3011 RMK A01 T02750182  RH  057%=      5-min Rain = 0
KWT1 150453Z 09007KT 28/18 A3011 RMK A01 T02760182  RH  057%=      5-min Rain = 0
KWT1 150454Z 10006KT 28/18 A3011 RMK A01 T02760182  RH  057%=      5-min Rain = 0
KWT1 150455Z 10006KT 28/18 A3011 RMK A01 T02760182  RH  057%=      5-min Rain = 0
KWT1 150456Z 10007KT 28/18 A3011 RMK A01 T02750182  RH  057%=      5-min Rain = 0
KWT1 150457Z 10007KT 28/18 A3011 RMK A01 T02750183  RH  057%=      5-min Rain = 0
KWT1 150458Z 09007KT 28/18 A3011 RMK A01 T02750182  RH  057%=      5-min Rain = 0
KWT1 150459Z 10007KT 28/18 A3011 RMK A01 T02750183  RH  057%=      5-min Rain = 0

Page generated in 0.1297 seconds.